Home > Products > Valid Products > TAF

000
FTUS42 KRAH 032019 AAB
TAFINT
TAF AMD
KINT 032019Z 0320/0418 17006KT 6SM BR SCT012 OVC020
      TEMPO 0321/0324 2SM SHRA BKN008
     FM040100 23008KT P6SM SCT020 BKN250
     FM041000 24005KT 5SM BR BKN005
     FM041400 22010G18KT P6SM BKN035=



000
FTUS42 KRAH 032019 AAB
TAFINT
TAF AMD
KINT 032019Z 0320/0418 17006KT 6SM BR SCT012 OVC020
      TEMPO 0321/0324 2SM SHRA BKN008
     FM040100 23008KT P6SM SCT020 BKN250
     FM041000 24005KT 5SM BR BKN005
     FM041400 22010G18KT P6SM BKN035=



000
FTUS42 KRAH 032019 AAB
TAFINT
TAF AMD
KINT 032019Z 0320/0418 17006KT 6SM BR SCT012 OVC020
      TEMPO 0321/0324 2SM SHRA BKN008
     FM040100 23008KT P6SM SCT020 BKN250
     FM041000 24005KT 5SM BR BKN005
     FM041400 22010G18KT P6SM BKN035=



000
FTUS42 KRAH 032019 AAB
TAFINT
TAF AMD
KINT 032019Z 0320/0418 17006KT 6SM BR SCT012 OVC020
      TEMPO 0321/0324 2SM SHRA BKN008
     FM040100 23008KT P6SM SCT020 BKN250
     FM041000 24005KT 5SM BR BKN005
     FM041400 22010G18KT P6SM BKN035=



000
FTUS42 KRAH 032018 AAB
TAFGSO
TAF AMD
KGSO 032018Z 0320/0418 17006KT P6SM VCSH BKN009 OVC020
      TEMPO 0321/0324 2SM SHRA BR BKN004
     FM040100 23008KT P6SM SCT020 BKN250
     FM041000 24005KT 5SM BR BKN005
     FM041400 22010G18KT P6SM BKN035=



000
FTUS42 KRAH 032018 AAB
TAFGSO
TAF AMD
KGSO 032018Z 0320/0418 17006KT P6SM VCSH BKN009 OVC020
      TEMPO 0321/0324 2SM SHRA BR BKN004
     FM040100 23008KT P6SM SCT020 BKN250
     FM041000 24005KT 5SM BR BKN005
     FM041400 22010G18KT P6SM BKN035=



000
FTUS42 KRAH 032018 AAB
TAFGSO
TAF AMD
KGSO 032018Z 0320/0418 17006KT P6SM VCSH BKN009 OVC020
      TEMPO 0321/0324 2SM SHRA BR BKN004
     FM040100 23008KT P6SM SCT020 BKN250
     FM041000 24005KT 5SM BR BKN005
     FM041400 22010G18KT P6SM BKN035=



000
FTUS42 KRAH 032018 AAB
TAFGSO
TAF AMD
KGSO 032018Z 0320/0418 17006KT P6SM VCSH BKN009 OVC020
      TEMPO 0321/0324 2SM SHRA BR BKN004
     FM040100 23008KT P6SM SCT020 BKN250
     FM041000 24005KT 5SM BR BKN005
     FM041400 22010G18KT P6SM BKN035=



000
FTUS42 KRAH 032015 AAA
TAFRDU
TAF AMD
KRDU 032015Z 0320/0418 20008KT P6SM VCSH BKN018 OVC040
      TEMPO 0321/0324 2SM SHRA BR SCT005 BKN010
     FM040500 22005KT P6SM FEW025 SCT150
     FM041400 25010G17KT P6SM SCT050 BKN120=



000
FTUS42 KRAH 032015 AAA
TAFRDU
TAF AMD
KRDU 032015Z 0320/0418 20008KT P6SM VCSH BKN018 OVC040
      TEMPO 0321/0324 2SM SHRA BR SCT005 BKN010
     FM040500 22005KT P6SM FEW025 SCT150
     FM041400 25010G17KT P6SM SCT050 BKN120=



000
FTUS42 KRAH 032014 AAA
TAFFAY
TAF AMD
KFAY 032014Z 0320/0418 22009KT P6SM VCSH BKN024
      TEMPO 0320/0323 VRB15G33KT 2SM TSRA BKN012CB OVC025
     FM040200 19005KT P6SM SCT045 OVC100
     FM040800 23007KT P6SM SCT080
     FM041400 24010G18KT P6SM FEW045 SCT150=



000
FTUS42 KRAH 032014 AAA
TAFFAY
TAF AMD
KFAY 032014Z 0320/0418 22009KT P6SM VCSH BKN024
      TEMPO 0320/0323 VRB15G33KT 2SM TSRA BKN012CB OVC025
     FM040200 19005KT P6SM SCT045 OVC100
     FM040800 23007KT P6SM SCT080
     FM041400 24010G18KT P6SM FEW045 SCT150=



000
FTUS42 KRAH 031759 AAA
TAFGSO
TAF AMD
KGSO 031759Z 0318/0418 18009KT P6SM VCSH SCT007 OVC014
      TEMPO 0318/0320 3SM -SHRA BR BKN006
     FM032000 17006KT 6SM BR SCT012 OVC020
      TEMPO 0320/0324 VRB15G30KT 3SM -TSRA BKN012CB OVC030
     FM040100 23008KT P6SM SCT020 SCT050 BKN250
     FM041000 24005KT 5SM BR BKN005
     FM041400 22010G18KT P6SM BKN035=



000
FTUS42 KRAH 031759 AAA
TAFGSO
TAF AMD
KGSO 031759Z 0318/0418 18009KT P6SM VCSH SCT007 OVC014
      TEMPO 0318/0320 3SM -SHRA BR BKN006
     FM032000 17006KT 6SM BR SCT012 OVC020
      TEMPO 0320/0324 VRB15G30KT 3SM -TSRA BKN012CB OVC030
     FM040100 23008KT P6SM SCT020 SCT050 BKN250
     FM041000 24005KT 5SM BR BKN005
     FM041400 22010G18KT P6SM BKN035=



000
FTUS42 KRAH 031759 AAA
TAFGSO
TAF AMD
KGSO 031759Z 0318/0418 18009KT P6SM VCSH SCT007 OVC014
      TEMPO 0318/0320 3SM -SHRA BR BKN006
     FM032000 17006KT 6SM BR SCT012 OVC020
      TEMPO 0320/0324 VRB15G30KT 3SM -TSRA BKN012CB OVC030
     FM040100 23008KT P6SM SCT020 SCT050 BKN250
     FM041000 24005KT 5SM BR BKN005
     FM041400 22010G18KT P6SM BKN035=



000
FTUS42 KRAH 031757 AAA
TAFINT
TAF AMD
KINT 031757Z 0318/0418 18009KT 3SM BR SCT009 OVC015
      TEMPO 0318/0320 1 1/2SM BR BKN008
     FM032000 19006KT 6SM BR SCT012 OVC020
      TEMPO 0320/0324 VRB15G30KT 3SM -TSRA BKN014CB OVC040
     FM040100 23008KT P6SM SCT020 SCT050 BKN250
     FM041000 24005KT 5SM BR BKN005
     FM041400 22010G18KT P6SM BKN035=



000
FTUS42 KRAH 031757 AAA
TAFINT
TAF AMD
KINT 031757Z 0318/0418 18009KT 3SM BR SCT009 OVC015
      TEMPO 0318/0320 1 1/2SM BR BKN008
     FM032000 19006KT 6SM BR SCT012 OVC020
      TEMPO 0320/0324 VRB15G30KT 3SM -TSRA BKN014CB OVC040
     FM040100 23008KT P6SM SCT020 SCT050 BKN250
     FM041000 24005KT 5SM BR BKN005
     FM041400 22010G18KT P6SM BKN035=



000
FTUS42 KRAH 031757 AAA
TAFINT
TAF AMD
KINT 031757Z 0318/0418 18009KT 3SM BR SCT009 OVC015
      TEMPO 0318/0320 1 1/2SM BR BKN008
     FM032000 19006KT 6SM BR SCT012 OVC020
      TEMPO 0320/0324 VRB15G30KT 3SM -TSRA BKN014CB OVC040
     FM040100 23008KT P6SM SCT020 SCT050 BKN250
     FM041000 24005KT 5SM BR BKN005
     FM041400 22010G18KT P6SM BKN035=



000
FTUS42 KRAH 031757 AAA
TAFINT
TAF AMD
KINT 031757Z 0318/0418 18009KT 3SM BR SCT009 OVC015
      TEMPO 0318/0320 1 1/2SM BR BKN008
     FM032000 19006KT 6SM BR SCT012 OVC020
      TEMPO 0320/0324 VRB15G30KT 3SM -TSRA BKN014CB OVC040
     FM040100 23008KT P6SM SCT020 SCT050 BKN250
     FM041000 24005KT 5SM BR BKN005
     FM041400 22010G18KT P6SM BKN035=



000
FTUS42 KRAH 031738
TAFGSO
TAF
KGSO 031738Z 0318/0418 18009KT P6SM VCSH BKN025
      TEMPO 0320/0324 VRB15G30KT 3SM -TSRA BKN020CB OVC040
     FM040100 23008KT P6SM SCT020 SCT050 BKN250
     FM041000 24005KT 5SM BR BKN005
     FM041400 22010G18KT P6SM BKN035=



000
FTUS42 KRAH 031738
TAFFAY
TAF
KFAY 031738Z 0318/0418 20008KT P6SM VCSH BKN012 OVC040
      TEMPO 0318/0320 3SM -SHRA BR BKN009
     FM032000 22010G17KT P6SM VCSH BKN030
      TEMPO 0321/0401 VRB15G33KT 2SM TSRA BKN018CB OVC035
     FM040200 19005KT P6SM SCT045 OVC100
     FM040800 23007KT P6SM SCT080
     FM041400 24010G18KT P6SM FEW045 SCT150=



000
FTUS42 KRAH 031738
TAFRDU
TAF
KRDU 031738Z 0318/0418 20008KT P6SM VCSH BKN025
      TEMPO 0318/0320 2SM SHRA BR SCT007 BKN012
     FM032100 20008KT P6SM VCSH BKN020 OVC150
      TEMPO 0322/0402 VRB15G30KT 2SM TSRA BKN015CB OVC030
     FM040500 22005KT P6SM FEW025 SCT150
     FM041400 25010G17KT P6SM SCT050 BKN120=



000
FTUS42 KRAH 031738
TAFRWI
TAF
KRWI 031738Z 0318/0418 20008KT P6SM VCSH SCT030 BKN060
      TEMPO 0319/0321 2SM SHRA BR SCT012 BKN022
     FM032100 20008KT P6SM VCSH BKN030 OVC150
      TEMPO 0322/0402 VRB15G30KT 2SM TSRA BKN015CB OVC030
     FM040500 22005KT P6SM FEW025 SCT150
     FM041400 25010G17KT P6SM SCT050 BKN120=



000
FTUS42 KRAH 031738
TAFINT
TAF
KINT 031738Z 0318/0418 18009KT P6SM VCSH BKN025
      TEMPO 0320/0324 VRB15G30KT 3SM -TSRA BKN020CB OVC040
     FM040100 23008KT P6SM SCT020 SCT050 BKN250
     FM041000 24005KT 5SM BR BKN005
     FM041400 22010G18KT P6SM BKN035=



000
FTUS42 KRAH 031738
TAFRDU
TAF
KRDU 031738Z 0318/0418 20008KT P6SM VCSH BKN025
      TEMPO 0318/0320 2SM SHRA BR SCT007 BKN012
     FM032100 20008KT P6SM VCSH BKN020 OVC150
      TEMPO 0322/0402 VRB15G30KT 2SM TSRA BKN015CB OVC030
     FM040500 22005KT P6SM FEW025 SCT150
     FM041400 25010G17KT P6SM SCT050 BKN120=



000
FTUS42 KRAH 031738
TAFGSO
TAF
KGSO 031738Z 0318/0418 18009KT P6SM VCSH BKN025
      TEMPO 0320/0324 VRB15G30KT 3SM -TSRA BKN020CB OVC040
     FM040100 23008KT P6SM SCT020 SCT050 BKN250
     FM041000 24005KT 5SM BR BKN005
     FM041400 22010G18KT P6SM BKN035=



000
FTUS42 KRAH 031738
TAFFAY
TAF
KFAY 031738Z 0318/0418 20008KT P6SM VCSH BKN012 OVC040
      TEMPO 0318/0320 3SM -SHRA BR BKN009
     FM032000 22010G17KT P6SM VCSH BKN030
      TEMPO 0321/0401 VRB15G33KT 2SM TSRA BKN018CB OVC035
     FM040200 19005KT P6SM SCT045 OVC100
     FM040800 23007KT P6SM SCT080
     FM041400 24010G18KT P6SM FEW045 SCT150=



000
FTUS42 KRAH 031738
TAFRWI
TAF
KRWI 031738Z 0318/0418 20008KT P6SM VCSH SCT030 BKN060
      TEMPO 0319/0321 2SM SHRA BR SCT012 BKN022
     FM032100 20008KT P6SM VCSH BKN030 OVC150
      TEMPO 0322/0402 VRB15G30KT 2SM TSRA BKN015CB OVC030
     FM040500 22005KT P6SM FEW025 SCT150
     FM041400 25010G17KT P6SM SCT050 BKN120=



000
FTUS42 KRAH 031738
TAFINT
TAF
KINT 031738Z 0318/0418 18009KT P6SM VCSH BKN025
      TEMPO 0320/0324 VRB15G30KT 3SM -TSRA BKN020CB OVC040
     FM040100 23008KT P6SM SCT020 SCT050 BKN250
     FM041000 24005KT 5SM BR BKN005
     FM041400 22010G18KT P6SM BKN035=



000
FTUS42 KRAH 031738
TAFGSO
TAF
KGSO 031738Z 0318/0418 18009KT P6SM VCSH BKN025
      TEMPO 0320/0324 VRB15G30KT 3SM -TSRA BKN020CB OVC040
     FM040100 23008KT P6SM SCT020 SCT050 BKN250
     FM041000 24005KT 5SM BR BKN005
     FM041400 22010G18KT P6SM BKN035=



000
FTUS42 KRAH 031738
TAFFAY
TAF
KFAY 031738Z 0318/0418 20008KT P6SM VCSH BKN012 OVC040
      TEMPO 0318/0320 3SM -SHRA BR BKN009
     FM032000 22010G17KT P6SM VCSH BKN030
      TEMPO 0321/0401 VRB15G33KT 2SM TSRA BKN018CB OVC035
     FM040200 19005KT P6SM SCT045 OVC100
     FM040800 23007KT P6SM SCT080
     FM041400 24010G18KT P6SM FEW045 SCT150=



000
FTUS42 KRAH 031738
TAFRWI
TAF
KRWI 031738Z 0318/0418 20008KT P6SM VCSH SCT030 BKN060
      TEMPO 0319/0321 2SM SHRA BR SCT012 BKN022
     FM032100 20008KT P6SM VCSH BKN030 OVC150
      TEMPO 0322/0402 VRB15G30KT 2SM TSRA BKN015CB OVC030
     FM040500 22005KT P6SM FEW025 SCT150
     FM041400 25010G17KT P6SM SCT050 BKN120=



000
FTUS42 KRAH 031738
TAFRDU
TAF
KRDU 031738Z 0318/0418 20008KT P6SM VCSH BKN025
      TEMPO 0318/0320 2SM SHRA BR SCT007 BKN012
     FM032100 20008KT P6SM VCSH BKN020 OVC150
      TEMPO 0322/0402 VRB15G30KT 2SM TSRA BKN015CB OVC030
     FM040500 22005KT P6SM FEW025 SCT150
     FM041400 25010G17KT P6SM SCT050 BKN120=



000
FTUS42 KRAH 031624 AAB
TAFFAY
TAF AMD
KFAY 031624Z 0316/0412 22010KT P6SM BKN012 OVC040
      TEMPO 0317/0319 3SM -SHRA BR SCT015 BKN025
     FM031900 22010G17KT P6SM VCSH BKN035
      TEMPO 0321/0324 VRB15G33KT 2SM TSRA BKN025CB OVC045=



000
FTUS42 KRAH 031624 AAB
TAFFAY
TAF AMD
KFAY 031624Z 0316/0412 22010KT P6SM BKN012 OVC040
      TEMPO 0317/0319 3SM -SHRA BR SCT015 BKN025
     FM031900 22010G17KT P6SM VCSH BKN035
      TEMPO 0321/0324 VRB15G33KT 2SM TSRA BKN025CB OVC045=



000
FTUS42 KRAH 031623 AAC
TAFRDU
TAF AMD
KRDU 031623Z 0316/0412 19006KT P6SM VCSH BKN018 BKN080
      TEMPO 0316/0318 5SM -SHRA BR SCT018 BKN030
     FM031800 18006KT P6SM VCSH BKN035
      TEMPO 0322/0401 VRB15G30KT 2SM TSRA BKN025CB OVC040=



000
FTUS42 KRAH 031623 AAC
TAFRDU
TAF AMD
KRDU 031623Z 0316/0412 19006KT P6SM VCSH BKN018 BKN080
      TEMPO 0316/0318 5SM -SHRA BR SCT018 BKN030
     FM031800 18006KT P6SM VCSH BKN035
      TEMPO 0322/0401 VRB15G30KT 2SM TSRA BKN025CB OVC040=



000
FTUS42 KRAH 031623 AAC
TAFRDU
TAF AMD
KRDU 031623Z 0316/0412 19006KT P6SM VCSH BKN018 BKN080
      TEMPO 0316/0318 5SM -SHRA BR SCT018 BKN030
     FM031800 18006KT P6SM VCSH BKN035
      TEMPO 0322/0401 VRB15G30KT 2SM TSRA BKN025CB OVC040=



000
FTUS42 KRAH 031542 AAB
TAFRWI
TAF AMD
KRWI 031542Z 0316/0412 14004KT P6SM SCT015 BKN035
      TEMPO 0316/0318 BKN015
     FM031800 20006KT P6SM VCSH SCT035
      TEMPO 0322/0402 VRB15G30KT 2SM TSRA BKN025CB OVC045=



000
FTUS42 KRAH 031542 AAB
TAFRWI
TAF AMD
KRWI 031542Z 0316/0412 14004KT P6SM SCT015 BKN035
      TEMPO 0316/0318 BKN015
     FM031800 20006KT P6SM VCSH SCT035
      TEMPO 0322/0402 VRB15G30KT 2SM TSRA BKN025CB OVC045=



000
FTUS42 KRAH 031541 AAD
TAFINT
TAF AMD
KINT 031541Z 0316/0412 16004KT P6SM VCSH SCT005 BKN016 OVC025
      TEMPO 0316/0318 2SM SHRA BR BKN005
     FM031900 18006KT P6SM VCSH BKN025
      TEMPO 0320/0324 VRB15G30KT 3SM -TSRA BKN020CB OVC040=



000
FTUS42 KRAH 031541 AAD
TAFINT
TAF AMD
KINT 031541Z 0316/0412 16004KT P6SM VCSH SCT005 BKN016 OVC025
      TEMPO 0316/0318 2SM SHRA BR BKN005
     FM031900 18006KT P6SM VCSH BKN025
      TEMPO 0320/0324 VRB15G30KT 3SM -TSRA BKN020CB OVC040=



000
FTUS42 KRAH 031541 AAD
TAFINT
TAF AMD
KINT 031541Z 0316/0412 16004KT P6SM VCSH SCT005 BKN016 OVC025
      TEMPO 0316/0318 2SM SHRA BR BKN005
     FM031900 18006KT P6SM VCSH BKN025
      TEMPO 0320/0324 VRB15G30KT 3SM -TSRA BKN020CB OVC040=



000
FTUS42 KRAH 031540 AAD
TAFGSO
TAF AMD
KGSO 031540Z 0316/0412 16004KT P6SM VCSH SCT004 BKN009 OVC015
      TEMPO 0316/0318 2SM -SHRA BR BKN004
     FM031900 18006KT P6SM VCSH BKN024
      TEMPO 0320/0324 VRB15G30KT 4SM -TSRA BKN020CB OVC040=



000
FTUS42 KRAH 031540 AAD
TAFGSO
TAF AMD
KGSO 031540Z 0316/0412 16004KT P6SM VCSH SCT004 BKN009 OVC015
      TEMPO 0316/0318 2SM -SHRA BR BKN004
     FM031900 18006KT P6SM VCSH BKN024
      TEMPO 0320/0324 VRB15G30KT 4SM -TSRA BKN020CB OVC040=



000
FTUS42 KRAH 031540 AAD
TAFGSO
TAF AMD
KGSO 031540Z 0316/0412 16004KT P6SM VCSH SCT004 BKN009 OVC015
      TEMPO 0316/0318 2SM -SHRA BR BKN004
     FM031900 18006KT P6SM VCSH BKN024
      TEMPO 0320/0324 VRB15G30KT 4SM -TSRA BKN020CB OVC040=



000
FTUS42 KRAH 031500 AAC
TAFGSO
TAF AMD
KGSO 031500Z 0315/0412 16004KT P6SM VCSH SCT008 BKN016 OVC035
      TEMPO 0315/0318 5SM -SHRA BR BKN008
     FM031900 18006KT P6SM VCSH SCT035
      TEMPO 0320/0324 VRB15G30KT 4SM -TSRA BKN025CB OVC040=



000
FTUS42 KRAH 031500 AAC
TAFGSO
TAF AMD
KGSO 031500Z 0315/0412 16004KT P6SM VCSH SCT008 BKN016 OVC035
      TEMPO 0315/0318 5SM -SHRA BR BKN008
     FM031900 18006KT P6SM VCSH SCT035
      TEMPO 0320/0324 VRB15G30KT 4SM -TSRA BKN025CB OVC040=



000
FTUS42 KRAH 031500 AAC
TAFGSO
TAF AMD
KGSO 031500Z 0315/0412 16004KT P6SM VCSH SCT008 BKN016 OVC035
      TEMPO 0315/0318 5SM -SHRA BR BKN008
     FM031900 18006KT P6SM VCSH SCT035
      TEMPO 0320/0324 VRB15G30KT 4SM -TSRA BKN025CB OVC040=



000
FTUS42 KRAH 031500 AAC
TAFGSO
TAF AMD
KGSO 031500Z 0315/0412 16004KT P6SM VCSH SCT008 BKN016 OVC035
      TEMPO 0315/0318 5SM -SHRA BR BKN008
     FM031900 18006KT P6SM VCSH SCT035
      TEMPO 0320/0324 VRB15G30KT 4SM -TSRA BKN025CB OVC040=



000
FTUS42 KRAH 031459 AAC
TAFINT
TAF AMD
KINT 031459Z 0315/0412 16004KT P6SM VCSH SCT008 BKN016 OVC035
      TEMPO 0315/0318 5SM -SHRA BR BKN008
     FM031900 18006KT P6SM VCSH BKN035
      TEMPO 0320/0324 VRB15G30KT 3SM -TSRA BKN025CB OVC040=



000
FTUS42 KRAH 031459 AAC
TAFINT
TAF AMD
KINT 031459Z 0315/0412 16004KT P6SM VCSH SCT008 BKN016 OVC035
      TEMPO 0315/0318 5SM -SHRA BR BKN008
     FM031900 18006KT P6SM VCSH BKN035
      TEMPO 0320/0324 VRB15G30KT 3SM -TSRA BKN025CB OVC040=



000
FTUS42 KRAH 031459 AAC
TAFINT
TAF AMD
KINT 031459Z 0315/0412 16004KT P6SM VCSH SCT008 BKN016 OVC035
      TEMPO 0315/0318 5SM -SHRA BR BKN008
     FM031900 18006KT P6SM VCSH BKN035
      TEMPO 0320/0324 VRB15G30KT 3SM -TSRA BKN025CB OVC040=



000
FTUS42 KRAH 031459 AAC
TAFINT
TAF AMD
KINT 031459Z 0315/0412 16004KT P6SM VCSH SCT008 BKN016 OVC035
      TEMPO 0315/0318 5SM -SHRA BR BKN008
     FM031900 18006KT P6SM VCSH BKN035
      TEMPO 0320/0324 VRB15G30KT 3SM -TSRA BKN025CB OVC040=



000
FTUS42 KRAH 031427 AAB
TAFGSO
TAF AMD
KGSO 031427Z 0314/0412 13005KT P6SM OVC012
     FM031600 16004KT P6SM VCSH BKN016 OVC035
      TEMPO 0316/0319 SCT018 BKN035
     FM031900 18006KT P6SM VCSH SCT035
      TEMPO 0320/0324 VRB15G30KT 4SM -TSRA BKN025CB OVC040=



000
FTUS42 KRAH 031427 AAB
TAFGSO
TAF AMD
KGSO 031427Z 0314/0412 13005KT P6SM OVC012
     FM031600 16004KT P6SM VCSH BKN016 OVC035
      TEMPO 0316/0319 SCT018 BKN035
     FM031900 18006KT P6SM VCSH SCT035
      TEMPO 0320/0324 VRB15G30KT 4SM -TSRA BKN025CB OVC040=



000
FTUS42 KRAH 031409 AAA
TAFRWI
TAF AMD
KRWI 031409Z 0314/0412 14004KT 5SM HZ SCT015 BKN025
      TEMPO 0314/0316 BKN015
     FM031800 20006KT P6SM VCSH SCT035
      TEMPO 0322/0402 VRB15G30KT 2SM TSRA BKN025CB OVC045=



000
FTUS42 KRAH 031409 AAA
TAFRWI
TAF AMD
KRWI 031409Z 0314/0412 14004KT 5SM HZ SCT015 BKN025
      TEMPO 0314/0316 BKN015
     FM031800 20006KT P6SM VCSH SCT035
      TEMPO 0322/0402 VRB15G30KT 2SM TSRA BKN025CB OVC045=



000
FTUS42 KRAH 031407 AAA
TAFFAY
TAF AMD
KFAY 031407Z 0314/0412 20006KT P6SM OVC012
      TEMPO 0314/0315 OVC009
     FM031600 22010KT P6SM BKN020 OVC040
     FM031800 22010G17KT P6SM VCSH SCT035
      TEMPO 0321/0324 VRB15G33KT 2SM TSRA BKN025CB OVC045=



000
FTUS42 KRAH 031329 AAB
TAFRDU
TAF AMD
KRDU 031329Z 0313/0412 16004KT 5SM BR BKN007 BKN014 OVC080
     FM031400 18005KT P6SM BKN014 BKN080
     FM031600 19006KT P6SM VCSH BKN025 BKN080
      TEMPO 0316/0318 SCT025
     FM031800 18006KT P6SM VCSH SCT035
      TEMPO 0322/0401 VRB15G30KT 2SM TSRA BKN025CB OVC040=



000
FTUS42 KRAH 031329 AAB
TAFRDU
TAF AMD
KRDU 031329Z 0313/0412 16004KT 5SM BR BKN007 BKN014 OVC080
     FM031400 18005KT P6SM BKN014 BKN080
     FM031600 19006KT P6SM VCSH BKN025 BKN080
      TEMPO 0316/0318 SCT025
     FM031800 18006KT P6SM VCSH SCT035
      TEMPO 0322/0401 VRB15G30KT 2SM TSRA BKN025CB OVC040=



000
FTUS42 KRAH 031328 AAB
TAFINT
TAF AMD
KINT 031328Z 0313/0412 17005KT P6SM OVC012
     FM031530 16004KT P6SM VCSH BKN016 OVC035
      TEMPO 0316/0319 SCT015 BKN035
     FM031900 18006KT P6SM VCSH SCT035
      TEMPO 0320/0324 VRB15G30KT 3SM -TSRA BKN025CB OVC040=



000
FTUS42 KRAH 031328 AAB
TAFINT
TAF AMD
KINT 031328Z 0313/0412 17005KT P6SM OVC012
     FM031530 16004KT P6SM VCSH BKN016 OVC035
      TEMPO 0316/0319 SCT015 BKN035
     FM031900 18006KT P6SM VCSH SCT035
      TEMPO 0320/0324 VRB15G30KT 3SM -TSRA BKN025CB OVC040=



000
FTUS42 KRAH 031310 AAA
TAFINT
TAF AMD
KINT 031310Z 0313/0412 09003KT P6SM OVC008
      TEMPO 0313/0314 VRB03KT 5SM BR BKN005
     FM031530 16004KT P6SM VCSH BKN016 OVC035
      TEMPO 0316/0319 SCT015 BKN035
     FM031900 18006KT P6SM VCSH SCT035
      TEMPO 0320/0324 VRB15G30KT 3SM -TSRA BKN025CB OVC040=



000
FTUS42 KRAH 031310 AAA
TAFINT
TAF AMD
KINT 031310Z 0313/0412 09003KT P6SM OVC008
      TEMPO 0313/0314 VRB03KT 5SM BR BKN005
     FM031530 16004KT P6SM VCSH BKN016 OVC035
      TEMPO 0316/0319 SCT015 BKN035
     FM031900 18006KT P6SM VCSH SCT035
      TEMPO 0320/0324 VRB15G30KT 3SM -TSRA BKN025CB OVC040=



000
FTUS42 KRAH 031310 AAA
TAFINT
TAF AMD
KINT 031310Z 0313/0412 09003KT P6SM OVC008
      TEMPO 0313/0314 VRB03KT 5SM BR BKN005
     FM031530 16004KT P6SM VCSH BKN016 OVC035
      TEMPO 0316/0319 SCT015 BKN035
     FM031900 18006KT P6SM VCSH SCT035
      TEMPO 0320/0324 VRB15G30KT 3SM -TSRA BKN025CB OVC040=



000
FTUS42 KRAH 031309 AAA
TAFGSO
TAF AMD
KGSO 031309Z 0313/0412 13005KT P6SM OVC009
      TEMPO 0313/0314 OVC012
     FM031530 16004KT P6SM VCSH BKN016 OVC035
      TEMPO 0316/0319 SCT018 BKN035
     FM031900 18006KT P6SM VCSH SCT035
      TEMPO 0320/0324 VRB15G30KT 4SM -TSRA BKN025CB OVC040=



000
FTUS42 KRAH 031309 AAA
TAFGSO
TAF AMD
KGSO 031309Z 0313/0412 13005KT P6SM OVC009
      TEMPO 0313/0314 OVC012
     FM031530 16004KT P6SM VCSH BKN016 OVC035
      TEMPO 0316/0319 SCT018 BKN035
     FM031900 18006KT P6SM VCSH SCT035
      TEMPO 0320/0324 VRB15G30KT 4SM -TSRA BKN025CB OVC040=



000
FTUS42 KRAH 031309 AAA
TAFGSO
TAF AMD
KGSO 031309Z 0313/0412 13005KT P6SM OVC009
      TEMPO 0313/0314 OVC012
     FM031530 16004KT P6SM VCSH BKN016 OVC035
      TEMPO 0316/0319 SCT018 BKN035
     FM031900 18006KT P6SM VCSH SCT035
      TEMPO 0320/0324 VRB15G30KT 4SM -TSRA BKN025CB OVC040=



000
FTUS42 KRAH 031309 AAA
TAFGSO
TAF AMD
KGSO 031309Z 0313/0412 13005KT P6SM OVC009
      TEMPO 0313/0314 OVC012
     FM031530 16004KT P6SM VCSH BKN016 OVC035
      TEMPO 0316/0319 SCT018 BKN035
     FM031900 18006KT P6SM VCSH SCT035
      TEMPO 0320/0324 VRB15G30KT 4SM -TSRA BKN025CB OVC040=



000
FTUS42 KRAH 031306 AAA
TAFRDU
TAF AMD
KRDU 031306Z 0313/0412 16004KT 5SM BR BKN007 BKN014 OVC080
      TEMPO 0313/0314 VRB03KT 6SM BR SCT007 BKN012
     FM031400 18005KT P6SM BKN014 BKN080
     FM031600 19006KT P6SM VCSH BKN025 BKN080
      TEMPO 0316/0318 SCT025
     FM031800 18006KT P6SM VCSH SCT035
      TEMPO 0322/0401 VRB15G30KT 2SM TSRA BKN025CB OVC040=



000
FTUS42 KRAH 031306 AAA
TAFRDU
TAF AMD
KRDU 031306Z 0313/0412 16004KT 5SM BR BKN007 BKN014 OVC080
      TEMPO 0313/0314 VRB03KT 6SM BR SCT007 BKN012
     FM031400 18005KT P6SM BKN014 BKN080
     FM031600 19006KT P6SM VCSH BKN025 BKN080
      TEMPO 0316/0318 SCT025
     FM031800 18006KT P6SM VCSH SCT035
      TEMPO 0322/0401 VRB15G30KT 2SM TSRA BKN025CB OVC040=



000
FTUS42 KRAH 031306 AAA
TAFRDU
TAF AMD
KRDU 031306Z 0313/0412 16004KT 5SM BR BKN007 BKN014 OVC080
      TEMPO 0313/0314 VRB03KT 6SM BR SCT007 BKN012
     FM031400 18005KT P6SM BKN014 BKN080
     FM031600 19006KT P6SM VCSH BKN025 BKN080
      TEMPO 0316/0318 SCT025
     FM031800 18006KT P6SM VCSH SCT035
      TEMPO 0322/0401 VRB15G30KT 2SM TSRA BKN025CB OVC040=



000
FTUS42 KRAH 031140
TAFGSO
TAF
KGSO 031140Z 0312/0412 09003KT 6SM BR VCSH SCT005 BKN014
      TEMPO 0312/0314 VRB03KT 3SM BR BKN005
     FM031530 16004KT P6SM VCSH BKN022 BKN035 OVC080
      TEMPO 0316/0319 SCT025 BKN035
     FM031900 18006KT P6SM VCSH SCT035 PROB30 0321/0324 VRB15G30KT
      4SM -TSRA BKN025CB OVC040=



000
FTUS42 KRAH 031140
TAFRDU
TAF
KRDU 031140Z 0312/0412 09003KT 3SM BR BKN004 BKN014 OVC080
      TEMPO 0312/0314 VRB03KT 6SM BR SCT005 BKN015
     FM031400 18005KT P6SM BKN014 BKN080
     FM031600 19006KT P6SM VCSH BKN025 BKN080
      TEMPO 0316/0318 SCT025
     FM031800 18006KT P6SM VCSH SCT035 PROB30 0321/0324 VRB15G30KT
      4SM -TSRA BKN025CB OVC040=



000
FTUS42 KRAH 031140
TAFRWI
TAF
KRWI 031140Z 0312/0412 VRB03KT 5SM BR BKN006 BKN035
      TEMPO 0312/0314 6SM BR SCT008
     FM031400 14004KT P6SM SCT015 BKN035
      TEMPO 0314/0316 BKN022
     FM031800 20006KT P6SM VCSH SCT035 PROB30 0321/0324 VRB15G30KT
      4SM -TSRA BKN025CB OVC045=



000
FTUS42 KRAH 031140
TAFFAY
TAF
KFAY 031140Z 0312/0412 20006KT P6SM BKN012 BKN080
     FM031400 22010KT P6SM VCSH SCT020 BKN035
      TEMPO 0314/0316 BKN025
     FM031800 22010G17KT P6SM VCSH SCT035 PROB30 0321/0324
      VRB15G30KT 4SM -TSRA BKN025CB OVC045=



000
FTUS42 KRAH 031140
TAFINT
TAF
KINT 031140Z 0312/0412 09003KT 6SM BR VCSH SCT005 BKN014
      TEMPO 0312/0314 VRB03KT 3SM BR BKN005
     FM031530 16004KT P6SM VCSH BKN022 BKN035 OVC080
      TEMPO 0316/0319 SCT025 BKN035
     FM031900 18006KT P6SM VCSH SCT035 PROB30 0321/0324 VRB15G30KT
      4SM -TSRA BKN025CB OVC040=



000
FTUS42 KRAH 031140
TAFINT
TAF
KINT 031140Z 0312/0412 09003KT 6SM BR VCSH SCT005 BKN014
      TEMPO 0312/0314 VRB03KT 3SM BR BKN005
     FM031530 16004KT P6SM VCSH BKN022 BKN035 OVC080
      TEMPO 0316/0319 SCT025 BKN035
     FM031900 18006KT P6SM VCSH SCT035 PROB30 0321/0324 VRB15G30KT
      4SM -TSRA BKN025CB OVC040=



000
FTUS42 KRAH 031140
TAFRWI
TAF
KRWI 031140Z 0312/0412 VRB03KT 5SM BR BKN006 BKN035
      TEMPO 0312/0314 6SM BR SCT008
     FM031400 14004KT P6SM SCT015 BKN035
      TEMPO 0314/0316 BKN022
     FM031800 20006KT P6SM VCSH SCT035 PROB30 0321/0324 VRB15G30KT
      4SM -TSRA BKN025CB OVC045=



000
FTUS42 KRAH 031140
TAFRDU
TAF
KRDU 031140Z 0312/0412 09003KT 3SM BR BKN004 BKN014 OVC080
      TEMPO 0312/0314 VRB03KT 6SM BR SCT005 BKN015
     FM031400 18005KT P6SM BKN014 BKN080
     FM031600 19006KT P6SM VCSH BKN025 BKN080
      TEMPO 0316/0318 SCT025
     FM031800 18006KT P6SM VCSH SCT035 PROB30 0321/0324 VRB15G30KT
      4SM -TSRA BKN025CB OVC040=



000
FTUS42 KRAH 031140
TAFFAY
TAF
KFAY 031140Z 0312/0412 20006KT P6SM BKN012 BKN080
     FM031400 22010KT P6SM VCSH SCT020 BKN035
      TEMPO 0314/0316 BKN025
     FM031800 22010G17KT P6SM VCSH SCT035 PROB30 0321/0324
      VRB15G30KT 4SM -TSRA BKN025CB OVC045=



000
FTUS42 KRAH 031140
TAFGSO
TAF
KGSO 031140Z 0312/0412 09003KT 6SM BR VCSH SCT005 BKN014
      TEMPO 0312/0314 VRB03KT 3SM BR BKN005
     FM031530 16004KT P6SM VCSH BKN022 BKN035 OVC080
      TEMPO 0316/0319 SCT025 BKN035
     FM031900 18006KT P6SM VCSH SCT035 PROB30 0321/0324 VRB15G30KT
      4SM -TSRA BKN025CB OVC040=



000
FTUS42 KRAH 031140
TAFFAY
TAF
KFAY 031140Z 0312/0412 20006KT P6SM BKN012 BKN080
     FM031400 22010KT P6SM VCSH SCT020 BKN035
      TEMPO 0314/0316 BKN025
     FM031800 22010G17KT P6SM VCSH SCT035 PROB30 0321/0324
      VRB15G30KT 4SM -TSRA BKN025CB OVC045=



000
FTUS42 KRAH 031140
TAFGSO
TAF
KGSO 031140Z 0312/0412 09003KT 6SM BR VCSH SCT005 BKN014
      TEMPO 0312/0314 VRB03KT 3SM BR BKN005
     FM031530 16004KT P6SM VCSH BKN022 BKN035 OVC080
      TEMPO 0316/0319 SCT025 BKN035
     FM031900 18006KT P6SM VCSH SCT035 PROB30 0321/0324 VRB15G30KT
      4SM -TSRA BKN025CB OVC040=



000
FTUS42 KRAH 031140
TAFRDU
TAF
KRDU 031140Z 0312/0412 09003KT 3SM BR BKN004 BKN014 OVC080
      TEMPO 0312/0314 VRB03KT 6SM BR SCT005 BKN015
     FM031400 18005KT P6SM BKN014 BKN080
     FM031600 19006KT P6SM VCSH BKN025 BKN080
      TEMPO 0316/0318 SCT025
     FM031800 18006KT P6SM VCSH SCT035 PROB30 0321/0324 VRB15G30KT
      4SM -TSRA BKN025CB OVC040=



000
FTUS42 KRAH 031140
TAFRWI
TAF
KRWI 031140Z 0312/0412 VRB03KT 5SM BR BKN006 BKN035
      TEMPO 0312/0314 6SM BR SCT008
     FM031400 14004KT P6SM SCT015 BKN035
      TEMPO 0314/0316 BKN022
     FM031800 20006KT P6SM VCSH SCT035 PROB30 0321/0324 VRB15G30KT
      4SM -TSRA BKN025CB OVC045=



000
FTUS42 KRAH 031140
TAFINT
TAF
KINT 031140Z 0312/0412 09003KT 6SM BR VCSH SCT005 BKN014
      TEMPO 0312/0314 VRB03KT 3SM BR BKN005
     FM031530 16004KT P6SM VCSH BKN022 BKN035 OVC080
      TEMPO 0316/0319 SCT025 BKN035
     FM031900 18006KT P6SM VCSH SCT035 PROB30 0321/0324 VRB15G30KT
      4SM -TSRA BKN025CB OVC040=



000
FTUS42 KRAH 031140
TAFFAY
TAF
KFAY 031140Z 0312/0412 20006KT P6SM BKN012 BKN080
     FM031400 22010KT P6SM VCSH SCT020 BKN035
      TEMPO 0314/0316 BKN025
     FM031800 22010G17KT P6SM VCSH SCT035 PROB30 0321/0324
      VRB15G30KT 4SM -TSRA BKN025CB OVC045=



000
FTUS42 KRAH 031140
TAFRDU
TAF
KRDU 031140Z 0312/0412 09003KT 3SM BR BKN004 BKN014 OVC080
      TEMPO 0312/0314 VRB03KT 6SM BR SCT005 BKN015
     FM031400 18005KT P6SM BKN014 BKN080
     FM031600 19006KT P6SM VCSH BKN025 BKN080
      TEMPO 0316/0318 SCT025
     FM031800 18006KT P6SM VCSH SCT035 PROB30 0321/0324 VRB15G30KT
      4SM -TSRA BKN025CB OVC040=



000
FTUS42 KRAH 031140
TAFRWI
TAF
KRWI 031140Z 0312/0412 VRB03KT 5SM BR BKN006 BKN035
      TEMPO 0312/0314 6SM BR SCT008
     FM031400 14004KT P6SM SCT015 BKN035
      TEMPO 0314/0316 BKN022
     FM031800 20006KT P6SM VCSH SCT035 PROB30 0321/0324 VRB15G30KT
      4SM -TSRA BKN025CB OVC045=



000
FTUS42 KRAH 031140
TAFINT
TAF
KINT 031140Z 0312/0412 09003KT 6SM BR VCSH SCT005 BKN014
      TEMPO 0312/0314 VRB03KT 3SM BR BKN005
     FM031530 16004KT P6SM VCSH BKN022 BKN035 OVC080
      TEMPO 0316/0319 SCT025 BKN035
     FM031900 18006KT P6SM VCSH SCT035 PROB30 0321/0324 VRB15G30KT
      4SM -TSRA BKN025CB OVC040=



000
FTUS42 KRAH 030915 AAB
TAFRDU
TAF AMD
KRDU 030915Z 0309/0406 VRB03KT 6SM BR FEW005 BKN012 BKN080
      TEMPO 0310/0312 5SM BR BKN005
     FM031400 16005KT P6SM VCSH SCT020 BKN035
      TEMPO 0314/0316 BKN025
     FM031800 18008KT P6SM SCT035 PROB30 0319/0323 VRB15G30KT 4SM
      -TSRA BKN025CB OVC045=



000
FTUS42 KRAH 030915 AAA
TAFINT
TAF AMD
KINT 030915Z 0309/0406 VRB03KT 6SM BR FEW005 BKN012 BKN080
      TEMPO 0310/0312 5SM BR BKN005
     FM031400 16004KT P6SM VCSH SCT020 BKN035
      TEMPO 0314/0316 BKN025
     FM031800 18006KT P6SM SCT035 PROB30 0319/0323 VRB15G30KT 4SM
      -TSRA BKN025CB OVC045=



000
FTUS42 KRAH 030915 AAA
TAFGSO
TAF AMD
KGSO 030915Z 0309/0406 VRB03KT 6SM BR FEW005 BKN012 BKN080
      TEMPO 0310/0312 5SM BR BKN005
     FM031400 16004KT P6SM VCSH SCT020 BKN035
      TEMPO 0314/0316 BKN025
     FM031800 18006KT P6SM SCT035 PROB30 0319/0323 VRB15G30KT 4SM
      -TSRA BKN025CB OVC045=



000
FTUS42 KRAH 030915 AAA
TAFGSO
TAF AMD
KGSO 030915Z 0309/0406 VRB03KT 6SM BR FEW005 BKN012 BKN080
      TEMPO 0310/0312 5SM BR BKN005
     FM031400 16004KT P6SM VCSH SCT020 BKN035
      TEMPO 0314/0316 BKN025
     FM031800 18006KT P6SM SCT035 PROB30 0319/0323 VRB15G30KT 4SM
      -TSRA BKN025CB OVC045=



000
FTUS42 KRAH 030915 AAB
TAFRDU
TAF AMD
KRDU 030915Z 0309/0406 VRB03KT 6SM BR FEW005 BKN012 BKN080
      TEMPO 0310/0312 5SM BR BKN005
     FM031400 16005KT P6SM VCSH SCT020 BKN035
      TEMPO 0314/0316 BKN025
     FM031800 18008KT P6SM SCT035 PROB30 0319/0323 VRB15G30KT 4SM
      -TSRA BKN025CB OVC045=



000
FTUS42 KRAH 030915 AAA
TAFINT
TAF AMD
KINT 030915Z 0309/0406 VRB03KT 6SM BR FEW005 BKN012 BKN080
      TEMPO 0310/0312 5SM BR BKN005
     FM031400 16004KT P6SM VCSH SCT020 BKN035
      TEMPO 0314/0316 BKN025
     FM031800 18006KT P6SM SCT035 PROB30 0319/0323 VRB15G30KT 4SM
      -TSRA BKN025CB OVC045=



000
FTUS42 KRAH 030806 AAA
TAFRWI
TAF AMD
KRWI 030806Z 0308/0406 VRB03KT 5SM BR BKN004 BKN012
     FM031200 VRB03KT 6SM BR BKN012 OVC060
     FM031400 16005KT P6SM VCSH SCT020 BKN035
      TEMPO 0314/0316 BKN025
     FM031800 20006KT P6SM SCT035 PROB30 0319/0323 VRB15G30KT 4SM
      -TSRA BKN025CB OVC045=



000
FTUS42 KRAH 030806 AAA
TAFRWI
TAF AMD
KRWI 030806Z 0308/0406 VRB03KT 5SM BR BKN004 BKN012
     FM031200 VRB03KT 6SM BR BKN012 OVC060
     FM031400 16005KT P6SM VCSH SCT020 BKN035
      TEMPO 0314/0316 BKN025
     FM031800 20006KT P6SM SCT035 PROB30 0319/0323 VRB15G30KT 4SM
      -TSRA BKN025CB OVC045=



000
FTUS42 KRAH 030559 CCA
TAFRWI
TAF COR
KRWI 030559Z 0306/0406 VRB02KT 6SM BR SCT010 BKN020 OVC060
     FM030900 VRB03KT 6SM BR BKN012 OVC060
     FM031400 16005KT P6SM VCSH SCT020 BKN035
      TEMPO 0314/0316 BKN025
     FM031800 20006KT P6SM SCT035 PROB30 0319/0323 VRB15G30KT 4SM
      -TSRA BKN025CB OVC045=



000
FTUS42 KRAH 030559 AAA
TAFRDU
TAF AMD
KRDU 030559Z 0306/0406 VRB03KT 5SM BR BKN015 BKN050 OVC080
      TEMPO 0306/0309 6SM BR SCT015
     FM031400 16005KT P6SM VCSH SCT020 BKN035
      TEMPO 0314/0316 BKN025
     FM031800 18008KT P6SM SCT035 PROB30 0319/0323 VRB15G30KT 4SM
      -TSRA BKN025CB OVC045=



000
FTUS42 KRAH 030559 AAA
TAFRDU
TAF AMD
KRDU 030559Z 0306/0406 VRB03KT 5SM BR BKN015 BKN050 OVC080
      TEMPO 0306/0309 6SM BR SCT015
     FM031400 16005KT P6SM VCSH SCT020 BKN035
      TEMPO 0314/0316 BKN025
     FM031800 18008KT P6SM SCT035 PROB30 0319/0323 VRB15G30KT 4SM
      -TSRA BKN025CB OVC045=



000
FTUS42 KRAH 030559 CCA
TAFRWI
TAF COR
KRWI 030559Z 0306/0406 VRB02KT 6SM BR SCT010 BKN020 OVC060
     FM030900 VRB03KT 6SM BR BKN012 OVC060
     FM031400 16005KT P6SM VCSH SCT020 BKN035
      TEMPO 0314/0316 BKN025
     FM031800 20006KT P6SM SCT035 PROB30 0319/0323 VRB15G30KT 4SM
      -TSRA BKN025CB OVC045=



000
FTUS42 KRAH 030559 CCA
TAFRWI
TAF COR
KRWI 030559Z 0306/0406 VRB02KT 6SM BR SCT010 BKN020 OVC060
     FM030900 VRB03KT 6SM BR BKN012 OVC060
     FM031400 16005KT P6SM VCSH SCT020 BKN035
      TEMPO 0314/0316 BKN025
     FM031800 20006KT P6SM SCT035 PROB30 0319/0323 VRB15G30KT 4SM
      -TSRA BKN025CB OVC045=



000
FTUS42 KRAH 030559 AAA
TAFRDU
TAF AMD
KRDU 030559Z 0306/0406 VRB03KT 5SM BR BKN015 BKN050 OVC080
      TEMPO 0306/0309 6SM BR SCT015
     FM031400 16005KT P6SM VCSH SCT020 BKN035
      TEMPO 0314/0316 BKN025
     FM031800 18008KT P6SM SCT035 PROB30 0319/0323 VRB15G30KT 4SM
      -TSRA BKN025CB OVC045=



000
FTUS42 KRAH 030559 AAA
TAFRDU
TAF AMD
KRDU 030559Z 0306/0406 VRB03KT 5SM BR BKN015 BKN050 OVC080
      TEMPO 0306/0309 6SM BR SCT015
     FM031400 16005KT P6SM VCSH SCT020 BKN035
      TEMPO 0314/0316 BKN025
     FM031800 18008KT P6SM SCT035 PROB30 0319/0323 VRB15G30KT 4SM
      -TSRA BKN025CB OVC045=



000
FTUS42 KRAH 030540
TAFRWI
TAF
KRWI 030540Z 0306/0406 VRB03KT 6SM BR SCT015 BKN050
     FM030800 VRB03KT 6SM BR BKN015 BKN050
     FM031400 16005KT P6SM VCSH SCT020 BKN035
      TEMPO 0314/0316 BKN025
     FM031800 20006KT P6SM SCT035 PROB30 0319/0323 VRB15G30KT 4SM
      -TSRA BKN025CB OVC045=



000
FTUS42 KRAH 030540
TAFINT
TAF
KINT 030540Z 0306/0406 VRB03KT 6SM BR BKN012 BKN080
      TEMPO 0306/0309 SCT015
     FM031400 16004KT P6SM VCSH SCT020 BKN035
      TEMPO 0314/0316 BKN025
     FM031800 18006KT P6SM SCT035 PROB30 0319/0323 VRB15G30KT 4SM
      -TSRA BKN025CB OVC045=



000
FTUS42 KRAH 030540
TAFFAY
TAF
KFAY 030540Z 0306/0406 24007KT P6SM BKN010 BKN080
      TEMPO 0306/0309 SCT012
     FM031400 24010KT P6SM VCSH SCT020 BKN035
      TEMPO 0314/0316 BKN025
     FM031800 22010KT P6SM SCT035 PROB30 0319/0323 VRB15G30KT 4SM
      -TSRA BKN025CB OVC045=



000
FTUS42 KRAH 030540
TAFRDU
TAF
KRDU 030540Z 0306/0406 VRB03KT 6SM BR BKN012 BKN080
      TEMPO 0306/0309 SCT015
     FM031400 16005KT P6SM VCSH SCT020 BKN035
      TEMPO 0314/0316 BKN025
     FM031800 18008KT P6SM SCT035 PROB30 0319/0323 VRB15G30KT 4SM
      -TSRA BKN025CB OVC045=



000
FTUS42 KRAH 030540
TAFGSO
TAF
KGSO 030540Z 0306/0406 VRB03KT 6SM BR BKN012 BKN080
      TEMPO 0306/0309 SCT015
     FM031400 16004KT P6SM VCSH SCT020 BKN035
      TEMPO 0314/0316 BKN025
     FM031800 18006KT P6SM SCT035 PROB30 0319/0323 VRB15G30KT 4SM
      -TSRA BKN025CB OVC045=



000
FTUS42 KRAH 030540
TAFFAY
TAF
KFAY 030540Z 0306/0406 24007KT P6SM BKN010 BKN080
      TEMPO 0306/0309 SCT012
     FM031400 24010KT P6SM VCSH SCT020 BKN035
      TEMPO 0314/0316 BKN025
     FM031800 22010KT P6SM SCT035 PROB30 0319/0323 VRB15G30KT 4SM
      -TSRA BKN025CB OVC045=



000
FTUS42 KRAH 030540
TAFRDU
TAF
KRDU 030540Z 0306/0406 VRB03KT 6SM BR BKN012 BKN080
      TEMPO 0306/0309 SCT015
     FM031400 16005KT P6SM VCSH SCT020 BKN035
      TEMPO 0314/0316 BKN025
     FM031800 18008KT P6SM SCT035 PROB30 0319/0323 VRB15G30KT 4SM
      -TSRA BKN025CB OVC045=



000
FTUS42 KRAH 030540
TAFRWI
TAF
KRWI 030540Z 0306/0406 VRB03KT 6SM BR SCT015 BKN050
     FM030800 VRB03KT 6SM BR BKN015 BKN050
     FM031400 16005KT P6SM VCSH SCT020 BKN035
      TEMPO 0314/0316 BKN025
     FM031800 20006KT P6SM SCT035 PROB30 0319/0323 VRB15G30KT 4SM
      -TSRA BKN025CB OVC045=



000
FTUS42 KRAH 030540
TAFINT
TAF
KINT 030540Z 0306/0406 VRB03KT 6SM BR BKN012 BKN080
      TEMPO 0306/0309 SCT015
     FM031400 16004KT P6SM VCSH SCT020 BKN035
      TEMPO 0314/0316 BKN025
     FM031800 18006KT P6SM SCT035 PROB30 0319/0323 VRB15G30KT 4SM
      -TSRA BKN025CB OVC045=



000
FTUS42 KRAH 030540
TAFGSO
TAF
KGSO 030540Z 0306/0406 VRB03KT 6SM BR BKN012 BKN080
      TEMPO 0306/0309 SCT015
     FM031400 16004KT P6SM VCSH SCT020 BKN035
      TEMPO 0314/0316 BKN025
     FM031800 18006KT P6SM SCT035 PROB30 0319/0323 VRB15G30KT 4SM
      -TSRA BKN025CB OVC045=



000
FTUS42 KRAH 030407 AAB
TAFRDU
TAF AMD
KRDU 030407Z 0304/0324 VRB03KT 6SM BR SCT015 BKN090
      TEMPO 0304/0307 5SM BR BKN015
     FM031000 22006KT P6SM OVC120
     FM031800 24007KT P6SM BKN100 PROB30 0318/0322 5SM TS BKN050CB=



000
FTUS42 KRAH 030407 AAB
TAFRDU
TAF AMD
KRDU 030407Z 0304/0324 VRB03KT 6SM BR SCT015 BKN090
      TEMPO 0304/0307 5SM BR BKN015
     FM031000 22006KT P6SM OVC120
     FM031800 24007KT P6SM BKN100 PROB30 0318/0322 5SM TS BKN050CB=



000
FTUS42 KRAH 030407 AAB
TAFRDU
TAF AMD
KRDU 030407Z 0304/0324 VRB03KT 6SM BR SCT015 BKN090
      TEMPO 0304/0307 5SM BR BKN015
     FM031000 22006KT P6SM OVC120
     FM031800 24007KT P6SM BKN100 PROB30 0318/0322 5SM TS BKN050CB=



000
FTUS42 KRAH 030406 AAA
TAFINT
TAF AMD
KINT 030406Z 0304/0324 VRB03KT 6SM BR SCT010 BKN080
      TEMPO 0304/0307 BKN007
     FM030700 00000KT 5SM BR OVC060
     FM031400 VRB03KT P6SM OVC060
     FM031800 22006KT P6SM OVC050 PROB30 0318/0322 4SM TS BKN025CB=



000
FTUS42 KRAH 030406 AAA
TAFINT
TAF AMD
KINT 030406Z 0304/0324 VRB03KT 6SM BR SCT010 BKN080
      TEMPO 0304/0307 BKN007
     FM030700 00000KT 5SM BR OVC060
     FM031400 VRB03KT P6SM OVC060
     FM031800 22006KT P6SM OVC050 PROB30 0318/0322 4SM TS BKN025CB=



000
FTUS42 KRAH 030333 AAA
TAFRWI
TAF AMD
KRWI 030333Z 0304/0324 22006KT 5SM -SHRA SCT015 BKN035 OVC060
     FM030500 22006KT 6SM BR SCT015 BKN035 BKN060
     FM031000 22008KT 5SM BR BKN120
     FM031200 21007KT P6SM BKN120
     FM031800 22010KT P6SM SCT250 PROB30 0318/0322 5SM TS BKN050CB=



000
FTUS42 KRAH 030333 AAA
TAFRWI
TAF AMD
KRWI 030333Z 0304/0324 22006KT 5SM -SHRA SCT015 BKN035 OVC060
     FM030500 22006KT 6SM BR SCT015 BKN035 BKN060
     FM031000 22008KT 5SM BR BKN120
     FM031200 21007KT P6SM BKN120
     FM031800 22010KT P6SM SCT250 PROB30 0318/0322 5SM TS BKN050CB=



000
FTUS42 KRAH 030148 AAA
TAFRDU
TAF AMD
KRDU 030148Z 0302/0324 24003KT P6SM SCT060 BKN090
     FM031000 22006KT P6SM OVC120
     FM031800 24007KT P6SM BKN100 PROB30 0318/0322 5SM TS BKN050CB=



000
FTUS42 KRAH 030148 AAA
TAFRDU
TAF AMD
KRDU 030148Z 0302/0324 24003KT P6SM SCT060 BKN090
     FM031000 22006KT P6SM OVC120
     FM031800 24007KT P6SM BKN100 PROB30 0318/0322 5SM TS BKN050CB=



000
FTUS42 KRAH 030147 AAA
TAFGSO
TAF AMD
KGSO 030147Z 0302/0324 31004KT P6SM BKN100
     FM030700 00000KT 5SM BR OVC060
     FM031400 VRB03KT P6SM OVC060
     FM031800 22006KT P6SM OVC050 PROB30 0318/0322 4SM TS BKN025CB=



000
FTUS42 KRAH 030147 AAA
TAFGSO
TAF AMD
KGSO 030147Z 0302/0324 31004KT P6SM BKN100
     FM030700 00000KT 5SM BR OVC060
     FM031400 VRB03KT P6SM OVC060
     FM031800 22006KT P6SM OVC050 PROB30 0318/0322 4SM TS BKN025CB=



000
FTUS42 KRAH 022330
TAFGSO
TAF
KGSO 022330Z 0300/0324 25008KT P6SM VCSH BKN050
     FM030200 31004KT P6SM BKN100
     FM030700 00000KT 5SM BR OVC060
     FM031400 VRB03KT P6SM OVC060
     FM031800 22006KT P6SM OVC050 PROB30 0318/0322 4SM TS BKN025CB=



000
FTUS42 KRAH 022330
TAFFAY
TAF
KFAY 022330Z 0300/0324 21010KT P6SM SCT060
     FM030200 23008KT P6SM FEW060 BKN150
     FM031800 24007G20KT P6SM BKN100 PROB30 0318/0322 5SM TS
      BKN050CB=



000
FTUS42 KRAH 022330
TAFGSO
TAF
KGSO 022330Z 0300/0324 25008KT P6SM VCSH BKN050
     FM030200 31004KT P6SM BKN100
     FM030700 00000KT 5SM BR OVC060
     FM031400 VRB03KT P6SM OVC060
     FM031800 22006KT P6SM OVC050 PROB30 0318/0322 4SM TS BKN025CB=



000
FTUS42 KRAH 022330
TAFINT
TAF
KINT 022330Z 0300/0324 27008KT P6SM VCSH SCT035 BKN090
     FM030200 31004KT P6SM BKN100
     FM030700 00000KT 5SM BR OVC060
     FM031400 VRB03KT P6SM OVC060
     FM031800 22006KT P6SM OVC050 PROB30 0318/0322 4SM TS BKN025CB=



000
FTUS42 KRAH 022330
TAFFAY
TAF
KFAY 022330Z 0300/0324 21010KT P6SM SCT060
     FM030200 23008KT P6SM FEW060 BKN150
     FM031800 24007G20KT P6SM BKN100 PROB30 0318/0322 5SM TS
      BKN050CB=



000
FTUS42 KRAH 022330
TAFRWI
TAF
KRWI 022330Z 0300/0324 24009KT P6SM VCSH BKN060
      TEMPO 0300/0303 VRB18G34KT 2SM TSRA BR SCT024 BKN035CB
     FM030300 24007KT P6SM VCSH SCT050 BKN120
     FM031000 22008KT 5SM BR BKN120
     FM031200 21007KT P6SM BKN120
     FM031800 22010KT P6SM SCT250 PROB30 0318/0322 5SM TS BKN050CB=



000
FTUS42 KRAH 022330
TAFINT
TAF
KINT 022330Z 0300/0324 27008KT P6SM VCSH SCT035 BKN090
     FM030200 31004KT P6SM BKN100
     FM030700 00000KT 5SM BR OVC060
     FM031400 VRB03KT P6SM OVC060
     FM031800 22006KT P6SM OVC050 PROB30 0318/0322 4SM TS BKN025CB=



000
FTUS42 KRAH 022330
TAFRDU
TAF
KRDU 022330Z 0300/0324 24005KT P6SM VCSH SCT050 BKN090
     FM031000 22006KT P6SM OVC120
     FM031800 24007KT P6SM BKN100 PROB30 0318/0322 5SM TS BKN050CB=



000
FTUS42 KRAH 022330
TAFRDU
TAF
KRDU 022330Z 0300/0324 24005KT P6SM VCSH SCT050 BKN090
     FM031000 22006KT P6SM OVC120
     FM031800 24007KT P6SM BKN100 PROB30 0318/0322 5SM TS BKN050CB=



000
FTUS42 KRAH 022330
TAFRWI
TAF
KRWI 022330Z 0300/0324 24009KT P6SM VCSH BKN060
      TEMPO 0300/0303 VRB18G34KT 2SM TSRA BR SCT024 BKN035CB
     FM030300 24007KT P6SM VCSH SCT050 BKN120
     FM031000 22008KT 5SM BR BKN120
     FM031200 21007KT P6SM BKN120
     FM031800 22010KT P6SM SCT250 PROB30 0318/0322 5SM TS BKN050CB=



000
FTUS42 KRAH 022330
TAFGSO
TAF
KGSO 022330Z 0300/0324 25008KT P6SM VCSH BKN050
     FM030200 31004KT P6SM BKN100
     FM030700 00000KT 5SM BR OVC060
     FM031400 VRB03KT P6SM OVC060
     FM031800 22006KT P6SM OVC050 PROB30 0318/0322 4SM TS BKN025CB=



000
FTUS42 KRAH 022330
TAFRWI
TAF
KRWI 022330Z 0300/0324 24009KT P6SM VCSH BKN060
      TEMPO 0300/0303 VRB18G34KT 2SM TSRA BR SCT024 BKN035CB
     FM030300 24007KT P6SM VCSH SCT050 BKN120
     FM031000 22008KT 5SM BR BKN120
     FM031200 21007KT P6SM BKN120
     FM031800 22010KT P6SM SCT250 PROB30 0318/0322 5SM TS BKN050CB=



000
FTUS42 KRAH 022330
TAFRDU
TAF
KRDU 022330Z 0300/0324 24005KT P6SM VCSH SCT050 BKN090
     FM031000 22006KT P6SM OVC120
     FM031800 24007KT P6SM BKN100 PROB30 0318/0322 5SM TS BKN050CB=



000
FTUS42 KRAH 022330
TAFFAY
TAF
KFAY 022330Z 0300/0324 21010KT P6SM SCT060
     FM030200 23008KT P6SM FEW060 BKN150
     FM031800 24007G20KT P6SM BKN100 PROB30 0318/0322 5SM TS
      BKN050CB=



000
FTUS42 KRAH 022330
TAFFAY
TAF
KFAY 022330Z 0300/0324 21010KT P6SM SCT060
     FM030200 23008KT P6SM FEW060 BKN150
     FM031800 24007G20KT P6SM BKN100 PROB30 0318/0322 5SM TS
      BKN050CB=



000
FTUS42 KRAH 022330
TAFINT
TAF
KINT 022330Z 0300/0324 27008KT P6SM VCSH SCT035 BKN090
     FM030200 31004KT P6SM BKN100
     FM030700 00000KT 5SM BR OVC060
     FM031400 VRB03KT P6SM OVC060
     FM031800 22006KT P6SM OVC050 PROB30 0318/0322 4SM TS BKN025CB=



000
FTUS42 KRAH 022330
TAFRWI
TAF
KRWI 022330Z 0300/0324 24009KT P6SM VCSH BKN060
      TEMPO 0300/0303 VRB18G34KT 2SM TSRA BR SCT024 BKN035CB
     FM030300 24007KT P6SM VCSH SCT050 BKN120
     FM031000 22008KT 5SM BR BKN120
     FM031200 21007KT P6SM BKN120
     FM031800 22010KT P6SM SCT250 PROB30 0318/0322 5SM TS BKN050CB=



000
FTUS42 KRAH 022330
TAFGSO
TAF
KGSO 022330Z 0300/0324 25008KT P6SM VCSH BKN050
     FM030200 31004KT P6SM BKN100
     FM030700 00000KT 5SM BR OVC060
     FM031400 VRB03KT P6SM OVC060
     FM031800 22006KT P6SM OVC050 PROB30 0318/0322 4SM TS BKN025CB=



000
FTUS42 KRAH 022330
TAFINT
TAF
KINT 022330Z 0300/0324 27008KT P6SM VCSH SCT035 BKN090
     FM030200 31004KT P6SM BKN100
     FM030700 00000KT 5SM BR OVC060
     FM031400 VRB03KT P6SM OVC060
     FM031800 22006KT P6SM OVC050 PROB30 0318/0322 4SM TS BKN025CB=



000
FTUS42 KRAH 022330
TAFRDU
TAF
KRDU 022330Z 0300/0324 24005KT P6SM VCSH SCT050 BKN090
     FM031000 22006KT P6SM OVC120
     FM031800 24007KT P6SM BKN100 PROB30 0318/0322 5SM TS BKN050CB=



000
FTUS42 KRAH 022031 AAB
TAFFAY
TAF AMD
KFAY 022031Z 0221/0318 23012G20KT P6SM SCT060
      TEMPO 0222/0224 VRB20G33KT 2SM TSRA BR SCT024 BKN040CB
     FM030200 23008KT P6SM FEW060 BKN150=



000
FTUS42 KRAH 022031 AAB
TAFFAY
TAF AMD
KFAY 022031Z 0221/0318 23012G20KT P6SM SCT060
      TEMPO 0222/0224 VRB20G33KT 2SM TSRA BR SCT024 BKN040CB
     FM030200 23008KT P6SM FEW060 BKN150=



000
FTUS42 KRAH 022029 AAB
TAFRDU
TAF AMD
KRDU 022029Z 0220/0318 24010KT P6SM VCSH BKN050
      TEMPO 0221/0223 VRB18G35KT 2SM TSRA BR SCT020 BKN030CB
     FM030100 24005KT P6SM VCSH SCT050 BKN090
     FM031000 22006KT P6SM OVC120=



000
FTUS42 KRAH 022029 AAB
TAFGSO
TAF AMD
KGSO 022029Z 0220/0318 25008KT P6SM VCSH BKN050
      TEMPO 0222/0301 4SM -SHRA SCT020 BKN035
     FM030200 31004KT P6SM BKN100
      TEMPO 0304/0308 -SHRA BKN050=



000
FTUS42 KRAH 022020 AAA
TAFINT
TAF AMD
KINT 022020Z 0220/0318 35008KT P6SM FEW020 SCT045
     FM022200 27008KT P6SM VCSH SCT035 BKN090
      TEMPO 0222/0301 VRB18G30KT 5SM -TSRA BR SCT022 BKN035CB
     FM030200 31004KT P6SM BKN100
      TEMPO 0304/0308 -SHRA BKN050=



000
FTUS42 KRAH 022020 AAA
TAFINT
TAF AMD
KINT 022020Z 0220/0318 35008KT P6SM FEW020 SCT045
     FM022200 27008KT P6SM VCSH SCT035 BKN090
      TEMPO 0222/0301 VRB18G30KT 5SM -TSRA BR SCT022 BKN035CB
     FM030200 31004KT P6SM BKN100
      TEMPO 0304/0308 -SHRA BKN050=



000
FTUS42 KRAH 022018 AAA
TAFRWI
TAF AMD
KRWI 022018Z 0220/0318 24009KT P6SM VCSH BKN060
      TEMPO 0221/0224 VRB18G34KT 2SM TSRA BR SCT024 BKN035CB
     FM030300 24007KT P6SM VCSH SCT050 BKN120
     FM031000 22008KT P6SM BKN120=



000
FTUS42 KRAH 022018 AAA
TAFRWI
TAF AMD
KRWI 022018Z 0220/0318 24009KT P6SM VCSH BKN060
      TEMPO 0221/0224 VRB18G34KT 2SM TSRA BR SCT024 BKN035CB
     FM030300 24007KT P6SM VCSH SCT050 BKN120
     FM031000 22008KT P6SM BKN120=



000
FTUS42 KRAH 021944 AAA
TAFGSO
TAF AMD
KGSO 021944Z 0220/0318 25008KT P6SM VCSH BKN050
      TEMPO 0220/0222 VRB18G33KT 1SM TSRA BR BKN018 BKN035CB
     FM030200 31004KT P6SM BKN100
      TEMPO 0304/0308 -SHRA BKN050=



000
FTUS42 KRAH 021827 AAA
TAFFAY
TAF AMD
KFAY 021827Z 0218/0318 23012G20KT P6SM SCT060
      TEMPO 0220/0224 VRB20G33KT 2SM TSRA BR SCT024 BKN040CB
     FM030200 23008KT P6SM FEW060 BKN150=



000
FTUS42 KRAH 021827 AAA
TAFFAY
TAF AMD
KFAY 021827Z 0218/0318 23012G20KT P6SM SCT060
      TEMPO 0220/0224 VRB20G33KT 2SM TSRA BR SCT024 BKN040CB
     FM030200 23008KT P6SM FEW060 BKN150=



000
FTUS42 KRAH 021826 AAA
TAFRDU
TAF AMD
KRDU 021826Z 0218/0318 24010KT P6SM VCSH BKN050
      TEMPO 0219/0223 VRB18G35KT 2SM TSRA BR FEW025 BKN035CB
     FM030100 24005KT P6SM VCSH SCT050 BKN090
     FM031000 22006KT P6SM OVC120=



000
FTUS42 KRAH 021727
TAFGSO
TAF
KGSO 021727Z 0218/0318 25008KT P6SM VCSH BKN050
      TEMPO 0219/0222 VRB18G33KT 2SM TSRA BR SCT022 BKN035CB
     FM030200 31004KT P6SM BKN100
      TEMPO 0304/0308 -SHRA BKN050=



000
FTUS42 KRAH 021727
TAFRDU
TAF
KRDU 021727Z 0218/0318 24010KT P6SM BKN050
      TEMPO 0221/0224 VRB18G35KT 2SM TSRA BR FEW025 BKN035CB
     FM030100 24005KT P6SM VCSH SCT050 BKN090
     FM031000 22006KT P6SM OVC120=



000
FTUS42 KRAH 021727
TAFGSO
TAF
KGSO 021727Z 0218/0318 25008KT P6SM VCSH BKN050
      TEMPO 0219/0222 VRB18G33KT 2SM TSRA BR SCT022 BKN035CB
     FM030200 31004KT P6SM BKN100
      TEMPO 0304/0308 -SHRA BKN050=



000
FTUS42 KRAH 021727
TAFRWI
TAF
KRWI 021727Z 0218/0318 24009KT P6SM BKN060
      TEMPO 0223/0303 VRB18G34KT 2SM TSRA BR SCT024 BKN035CB
     FM030300 24007KT P6SM VCSH SCT050 BKN120
     FM031000 22008KT P6SM BKN120=



000
FTUS42 KRAH 021727
TAFINT
TAF
KINT 021727Z 0218/0318 25008KT P6SM VCSH BKN050
      TEMPO 0219/0222 VRB18G33KT 2SM TSRA BR SCT022 BKN035CB
     FM030200 31004KT P6SM BKN100
      TEMPO 0304/0308 -SHRA BKN050=



000
FTUS42 KRAH 021727
TAFFAY
TAF
KFAY 021727Z 0218/0318 23012G20KT P6SM SCT060
      TEMPO 0223/0303 VRB20G33KT 2SM TSRA BR SCT024 BKN040CB
     FM030300 23008KT P6SM FEW060 BKN150=



000
FTUS42 KRAH 021727
TAFINT
TAF
KINT 021727Z 0218/0318 25008KT P6SM VCSH BKN050
      TEMPO 0219/0222 VRB18G33KT 2SM TSRA BR SCT022 BKN035CB
     FM030200 31004KT P6SM BKN100
      TEMPO 0304/0308 -SHRA BKN050=



000
FTUS42 KRAH 021727
TAFRWI
TAF
KRWI 021727Z 0218/0318 24009KT P6SM BKN060
      TEMPO 0223/0303 VRB18G34KT 2SM TSRA BR SCT024 BKN035CB
     FM030300 24007KT P6SM VCSH SCT050 BKN120
     FM031000 22008KT P6SM BKN120=



000
FTUS42 KRAH 021727
TAFFAY
TAF
KFAY 021727Z 0218/0318 23012G20KT P6SM SCT060
      TEMPO 0223/0303 VRB20G33KT 2SM TSRA BR SCT024 BKN040CB
     FM030300 23008KT P6SM FEW060 BKN150=



000
FTUS42 KRAH 021727
TAFRDU
TAF
KRDU 021727Z 0218/0318 24010KT P6SM BKN050
      TEMPO 0221/0224 VRB18G35KT 2SM TSRA BR FEW025 BKN035CB
     FM030100 24005KT P6SM VCSH SCT050 BKN090
     FM031000 22006KT P6SM OVC120=



000
FTUS42 KRAH 021648 AAB
TAFINT
TAF AMD
KINT 021648Z 0217/0312 27009KT P6SM SCT045 BKN100
      TEMPO 0217/0221 4SM -SHRA SCT025 BKN045 OVC100
     FM022100 25010KT P6SM VCSH SCT045 BKN080
      TEMPO 0221/0224 VRB18G33KT 2SM TSRA BR SCT024 BKN035CB=



000
FTUS42 KRAH 021648 AAB
TAFINT
TAF AMD
KINT 021648Z 0217/0312 27009KT P6SM SCT045 BKN100
      TEMPO 0217/0221 4SM -SHRA SCT025 BKN045 OVC100
     FM022100 25010KT P6SM VCSH SCT045 BKN080
      TEMPO 0221/0224 VRB18G33KT 2SM TSRA BR SCT024 BKN035CB=



000
FTUS42 KRAH 021648 AAB
TAFRWI
TAF AMD
KRWI 021648Z 0217/0312 23008G15KT P6SM SCT045 BKN100
      TEMPO 0222/0302 VRB15G33KT 2SM TSRA SCT025 BKN045CB
     FM030300 25007KT P6SM VCSH SCT050 BKN080=



000
FTUS42 KRAH 021648 AAB
TAFRWI
TAF AMD
KRWI 021648Z 0217/0312 23008G15KT P6SM SCT045 BKN100
      TEMPO 0222/0302 VRB15G33KT 2SM TSRA SCT025 BKN045CB
     FM030300 25007KT P6SM VCSH SCT050 BKN080=



000
FTUS42 KRAH 021444 AAA
TAFRWI
TAF AMD
KRWI 021444Z 0215/0312 22007KT P6SM BKN120 BKN250
     FM021600 24014G21KT P6SM SCT045 BKN100
      TEMPO 0222/0302 VRB15G33KT 2SM TSRA SCT025 BKN045CB
     FM030300 25007KT P6SM VCSH SCT050 BKN080=



000
FTUS42 KRAH 021444 AAA
TAFRWI
TAF AMD
KRWI 021444Z 0215/0312 22007KT P6SM BKN120 BKN250
     FM021600 24014G21KT P6SM SCT045 BKN100
      TEMPO 0222/0302 VRB15G33KT 2SM TSRA SCT025 BKN045CB
     FM030300 25007KT P6SM VCSH SCT050 BKN080=



000
FTUS42 KRAH 021444 AAA
TAFRWI
TAF AMD
KRWI 021444Z 0215/0312 22007KT P6SM BKN120 BKN250
     FM021600 24014G21KT P6SM SCT045 BKN100
      TEMPO 0222/0302 VRB15G33KT 2SM TSRA SCT025 BKN045CB
     FM030300 25007KT P6SM VCSH SCT050 BKN080=



000
FTUS42 KRAH 021406 AAA
TAFINT
TAF AMD
KINT 021406Z 0214/0312 24006KT 6SM HZ SCT040 BKN100 BKN250
     FM021600 24009G18KT P6SM SCT045 BKN100
      TEMPO 0217/0221 4SM -SHRA SCT025 BKN045 OVC100
     FM022100 25010KT P6SM VCSH SCT045 BKN080
      TEMPO 0221/0224 VRB18G33KT 2SM TSRA BR SCT024 BKN035CB=



000
FTUS42 KRAH 021406 AAA
TAFINT
TAF AMD
KINT 021406Z 0214/0312 24006KT 6SM HZ SCT040 BKN100 BKN250
     FM021600 24009G18KT P6SM SCT045 BKN100
      TEMPO 0217/0221 4SM -SHRA SCT025 BKN045 OVC100
     FM022100 25010KT P6SM VCSH SCT045 BKN080
      TEMPO 0221/0224 VRB18G33KT 2SM TSRA BR SCT024 BKN035CB=



000
FTUS42 KRAH 021406 AAA
TAFINT
TAF AMD
KINT 021406Z 0214/0312 24006KT 6SM HZ SCT040 BKN100 BKN250
     FM021600 24009G18KT P6SM SCT045 BKN100
      TEMPO 0217/0221 4SM -SHRA SCT025 BKN045 OVC100
     FM022100 25010KT P6SM VCSH SCT045 BKN080
      TEMPO 0221/0224 VRB18G33KT 2SM TSRA BR SCT024 BKN035CB=



000
FTUS42 KRAH 021403 AAB
TAFGSO
TAF AMD
KGSO 021403Z 0214/0312 24009KT 6SM HZ SCT045 BKN100
     FM021600 24011KT P6SM SCT045 BKN100 BKN250
      TEMPO 0219/0223 3SM -SHRA SCT025 BKN045
     FM022300 25007KT P6SM VCSH SCT030 BKN050=



000
FTUS42 KRAH 021403 AAB
TAFGSO
TAF AMD
KGSO 021403Z 0214/0312 24009KT 6SM HZ SCT045 BKN100
     FM021600 24011KT P6SM SCT045 BKN100 BKN250
      TEMPO 0219/0223 3SM -SHRA SCT025 BKN045
     FM022300 25007KT P6SM VCSH SCT030 BKN050=



000
FTUS42 KRAH 021403 AAB
TAFGSO
TAF AMD
KGSO 021403Z 0214/0312 24009KT 6SM HZ SCT045 BKN100
     FM021600 24011KT P6SM SCT045 BKN100 BKN250
      TEMPO 0219/0223 3SM -SHRA SCT025 BKN045
     FM022300 25007KT P6SM VCSH SCT030 BKN050=



000
FTUS42 KRAH 021403 AAB
TAFGSO
TAF AMD
KGSO 021403Z 0214/0312 24009KT 6SM HZ SCT045 BKN100
     FM021600 24011KT P6SM SCT045 BKN100 BKN250
      TEMPO 0219/0223 3SM -SHRA SCT025 BKN045
     FM022300 25007KT P6SM VCSH SCT030 BKN050=



000
FTUS42 KRAH 021400 AAB
TAFRDU
TAF AMD
KRDU 021400Z 0214/0312 25008KT 6SM HZ SCT060 BKN110
     FM021600 25011KT P6SM SCT045 BKN100
     FM021900 24010KT P6SM VCTS SCT050CB BKN090
      TEMPO 0221/0224 VRB15G30KT 2SM TSRA SCT025 BKN035CB
     FM030100 24006KT P6SM VCSH SCT035 BKN060=



000
FTUS42 KRAH 021400 AAB
TAFRDU
TAF AMD
KRDU 021400Z 0214/0312 25008KT 6SM HZ SCT060 BKN110
     FM021600 25011KT P6SM SCT045 BKN100
     FM021900 24010KT P6SM VCTS SCT050CB BKN090
      TEMPO 0221/0224 VRB15G30KT 2SM TSRA SCT025 BKN035CB
     FM030100 24006KT P6SM VCSH SCT035 BKN060=



000
FTUS42 KRAH 021400 AAB
TAFRDU
TAF AMD
KRDU 021400Z 0214/0312 25008KT 6SM HZ SCT060 BKN110
     FM021600 25011KT P6SM SCT045 BKN100
     FM021900 24010KT P6SM VCTS SCT050CB BKN090
      TEMPO 0221/0224 VRB15G30KT 2SM TSRA SCT025 BKN035CB
     FM030100 24006KT P6SM VCSH SCT035 BKN060=



000
FTUS42 KRAH 021400 AAB
TAFRDU
TAF AMD
KRDU 021400Z 0214/0312 25008KT 6SM HZ SCT060 BKN110
     FM021600 25011KT P6SM SCT045 BKN100
     FM021900 24010KT P6SM VCTS SCT050CB BKN090
      TEMPO 0221/0224 VRB15G30KT 2SM TSRA SCT025 BKN035CB
     FM030100 24006KT P6SM VCSH SCT035 BKN060=



000
FTUS42 KRAH 021316 AAA
TAFGSO
TAF AMD
KGSO 021316Z 0213/0312 24006KT 6SM HZ VCSH BKN100 BKN250
     FM021530 24009G16KT P6SM VCSH SCT045 BKN100 BKN250
      TEMPO 0216/0219 4SM -SHRA SCT025 BKN045 OVC100=



000
FTUS42 KRAH 021316 AAA
TAFGSO
TAF AMD
KGSO 021316Z 0213/0312 24006KT 6SM HZ VCSH BKN100 BKN250
     FM021530 24009G16KT P6SM VCSH SCT045 BKN100 BKN250
      TEMPO 0216/0219 4SM -SHRA SCT025 BKN045 OVC100=



000
FTUS42 KRAH 021316 AAA
TAFGSO
TAF AMD
KGSO 021316Z 0213/0312 24006KT 6SM HZ VCSH BKN100 BKN250
     FM021530 24009G16KT P6SM VCSH SCT045 BKN100 BKN250
      TEMPO 0216/0219 4SM -SHRA SCT025 BKN045 OVC100=



000
FTUS42 KRAH 021316 AAA
TAFGSO
TAF AMD
KGSO 021316Z 0213/0312 24006KT 6SM HZ VCSH BKN100 BKN250
     FM021530 24009G16KT P6SM VCSH SCT045 BKN100 BKN250
      TEMPO 0216/0219 4SM -SHRA SCT025 BKN045 OVC100=



000
FTUS42 KRAH 021315 AAA
TAFRDU
TAF AMD
KRDU 021315Z 0213/0312 23006KT 5SM BR VCSH BKN110 BKN250
     FM021530 25011G18KT P6SM SCT045 BKN100 PROB30 0222/0301
      VRB15G30KT 4SM -TSRA SCT025 BKN045CB BKN100=



000
FTUS42 KRAH 021315 AAA
TAFRDU
TAF AMD
KRDU 021315Z 0213/0312 23006KT 5SM BR VCSH BKN110 BKN250
     FM021530 25011G18KT P6SM SCT045 BKN100 PROB30 0222/0301
      VRB15G30KT 4SM -TSRA SCT025 BKN045CB BKN100=



000
FTUS42 KRAH 021315 AAA
TAFRDU
TAF AMD
KRDU 021315Z 0213/0312 23006KT 5SM BR VCSH BKN110 BKN250
     FM021530 25011G18KT P6SM SCT045 BKN100 PROB30 0222/0301
      VRB15G30KT 4SM -TSRA SCT025 BKN045CB BKN100=



000
FTUS42 KRAH 021315 AAA
TAFRDU
TAF AMD
KRDU 021315Z 0213/0312 23006KT 5SM BR VCSH BKN110 BKN250
     FM021530 25011G18KT P6SM SCT045 BKN100 PROB30 0222/0301
      VRB15G30KT 4SM -TSRA SCT025 BKN045CB BKN100=



000
FTUS42 KRAH 021140
TAFGSO
TAF
KGSO 021140Z 0212/0312 24006KT 6SM HZ VCSH BKN100 BKN250
      TEMPO 0212/0215 3SM -SHRA
     FM021530 24009G16KT P6SM VCSH SCT045 BKN100 BKN250
      TEMPO 0216/0219 4SM -SHRA SCT025 BKN045 OVC100=



000
FTUS42 KRAH 021140
TAFINT
TAF
KINT 021140Z 0212/0312 24006KT 6SM HZ VCSH BKN100 BKN250
      TEMPO 0212/0215 3SM -SHRA
     FM021530 24009G16KT P6SM VCSH SCT045 BKN100 BKN250
      TEMPO 0216/0219 4SM -SHRA SCT025 BKN045 OVC100=



000
FTUS42 KRAH 021140
TAFINT
TAF
KINT 021140Z 0212/0312 24006KT 6SM HZ VCSH BKN100 BKN250
      TEMPO 0212/0215 3SM -SHRA
     FM021530 24009G16KT P6SM VCSH SCT045 BKN100 BKN250
      TEMPO 0216/0219 4SM -SHRA SCT025 BKN045 OVC100=



000
FTUS42 KRAH 021140
TAFGSO
TAF
KGSO 021140Z 0212/0312 24006KT 6SM HZ VCSH BKN100 BKN250
      TEMPO 0212/0215 3SM -SHRA
     FM021530 24009G16KT P6SM VCSH SCT045 BKN100 BKN250
      TEMPO 0216/0219 4SM -SHRA SCT025 BKN045 OVC100=



000
FTUS42 KRAH 021140
TAFFAY
TAF
KFAY 021140Z 0212/0312 23009KT 6SM HZ BKN110 BKN250
     FM021530 25014G21KT P6SM SCT045 BKN100 PROB30 0221/0301
      VRB15G30KT 4SM -TSRA SCT025 BKN045CB=



000
FTUS42 KRAH 021140
TAFRDU
TAF
KRDU 021140Z 0212/0312 23006KT 6SM HZ VCSH BKN110 BKN250
     FM021530 25011G18KT P6SM SCT045 BKN100 PROB30 0221/0301
      VRB15G30KT 4SM -TSRA SCT025 BKN045CB BKN100=



000
FTUS42 KRAH 021140
TAFGSO
TAF
KGSO 021140Z 0212/0312 24006KT 6SM HZ VCSH BKN100 BKN250
      TEMPO 0212/0215 3SM -SHRA
     FM021530 24009G16KT P6SM VCSH SCT045 BKN100 BKN250
      TEMPO 0216/0219 4SM -SHRA SCT025 BKN045 OVC100=



000
FTUS42 KRAH 021140
TAFFAY
TAF
KFAY 021140Z 0212/0312 23009KT 6SM HZ BKN110 BKN250
     FM021530 25014G21KT P6SM SCT045 BKN100 PROB30 0221/0301
      VRB15G30KT 4SM -TSRA SCT025 BKN045CB=



000
FTUS42 KRAH 021140
TAFRDU
TAF
KRDU 021140Z 0212/0312 23006KT 6SM HZ VCSH BKN110 BKN250
     FM021530 25011G18KT P6SM SCT045 BKN100 PROB30 0221/0301
      VRB15G30KT 4SM -TSRA SCT025 BKN045CB BKN100=



000
FTUS42 KRAH 021140
TAFRWI
TAF
KRWI 021140Z 0212/0312 22007KT P6SM VCSH BKN120 BKN250
      TEMPO 0213/0216 3SM -SHRA
     FM021600 24014G21KT P6SM SCT045 BKN100 PROB30 0222/0302
      VRB15G30KT 4SM -TSRA SCT025 BKN045CB=



000
FTUS42 KRAH 021140
TAFFAY
TAF
KFAY 021140Z 0212/0312 23009KT 6SM HZ BKN110 BKN250
     FM021530 25014G21KT P6SM SCT045 BKN100 PROB30 0221/0301
      VRB15G30KT 4SM -TSRA SCT025 BKN045CB=



000
FTUS42 KRAH 021140
TAFRWI
TAF
KRWI 021140Z 0212/0312 22007KT P6SM VCSH BKN120 BKN250
      TEMPO 0213/0216 3SM -SHRA
     FM021600 24014G21KT P6SM SCT045 BKN100 PROB30 0222/0302
      VRB15G30KT 4SM -TSRA SCT025 BKN045CB=



000
FTUS42 KRAH 021140
TAFINT
TAF
KINT 021140Z 0212/0312 24006KT 6SM HZ VCSH BKN100 BKN250
      TEMPO 0212/0215 3SM -SHRA
     FM021530 24009G16KT P6SM VCSH SCT045 BKN100 BKN250
      TEMPO 0216/0219 4SM -SHRA SCT025 BKN045 OVC100=



000
FTUS42 KRAH 021140
TAFRDU
TAF
KRDU 021140Z 0212/0312 23006KT 6SM HZ VCSH BKN110 BKN250
     FM021530 25011G18KT P6SM SCT045 BKN100 PROB30 0221/0301
      VRB15G30KT 4SM -TSRA SCT025 BKN045CB BKN100=



000
FTUS42 KRAH 021140
TAFFAY
TAF
KFAY 021140Z 0212/0312 23009KT 6SM HZ BKN110 BKN250
     FM021530 25014G21KT P6SM SCT045 BKN100 PROB30 0221/0301
      VRB15G30KT 4SM -TSRA SCT025 BKN045CB=



000
FTUS42 KRAH 021140
TAFGSO
TAF
KGSO 021140Z 0212/0312 24006KT 6SM HZ VCSH BKN100 BKN250
      TEMPO 0212/0215 3SM -SHRA
     FM021530 24009G16KT P6SM VCSH SCT045 BKN100 BKN250
      TEMPO 0216/0219 4SM -SHRA SCT025 BKN045 OVC100=



000
FTUS42 KRAH 021140
TAFINT
TAF
KINT 021140Z 0212/0312 24006KT 6SM HZ VCSH BKN100 BKN250
      TEMPO 0212/0215 3SM -SHRA
     FM021530 24009G16KT P6SM VCSH SCT045 BKN100 BKN250
      TEMPO 0216/0219 4SM -SHRA SCT025 BKN045 OVC100=



000
FTUS42 KRAH 021140
TAFRWI
TAF
KRWI 021140Z 0212/0312 22007KT P6SM VCSH BKN120 BKN250
      TEMPO 0213/0216 3SM -SHRA
     FM021600 24014G21KT P6SM SCT045 BKN100 PROB30 0222/0302
      VRB15G30KT 4SM -TSRA SCT025 BKN045CB=



000
FTUS42 KRAH 021140
TAFRDU
TAF
KRDU 021140Z 0212/0312 23006KT 6SM HZ VCSH BKN110 BKN250
     FM021530 25011G18KT P6SM SCT045 BKN100 PROB30 0221/0301
      VRB15G30KT 4SM -TSRA SCT025 BKN045CB BKN100=



000
FTUS42 KRAH 021140
TAFRWI
TAF
KRWI 021140Z 0212/0312 22007KT P6SM VCSH BKN120 BKN250
      TEMPO 0213/0216 3SM -SHRA
     FM021600 24014G21KT P6SM SCT045 BKN100 PROB30 0222/0302
      VRB15G30KT 4SM -TSRA SCT025 BKN045CB=



000
FTUS42 KRAH 020936 AAA
TAFGSO
TAF AMD
KGSO 020936Z 0210/0306 23005KT 6SM HZ BKN110 BKN250
     FM021530 24008KT P6SM SCT045 PROB30 0219/0223 VRB15G30KT 4SM
      -TSRA SCT025 BKN045CB=



000
FTUS42 KRAH 020936 AAA
TAFGSO
TAF AMD
KGSO 020936Z 0210/0306 23005KT 6SM HZ BKN110 BKN250
     FM021530 24008KT P6SM SCT045 PROB30 0219/0223 VRB15G30KT 4SM
      -TSRA SCT025 BKN045CB=



000
FTUS42 KRAH 020936 AAA
TAFRDU
TAF AMD
KRDU 020936Z 0210/0306 23005KT 6SM HZ BKN110 BKN250
     FM021530 25011G18KT P6SM SCT045 PROB30 0220/0224 VRB15G30KT 4SM
      -TSRA SCT025 BKN045CB=



000
FTUS42 KRAH 020936 AAA
TAFRDU
TAF AMD
KRDU 020936Z 0210/0306 23005KT 6SM HZ BKN110 BKN250
     FM021530 25011G18KT P6SM SCT045 PROB30 0220/0224 VRB15G30KT 4SM
      -TSRA SCT025 BKN045CB=



000
FTUS42 KRAH 020540
TAFGSO
TAF
KGSO 020540Z 0206/0306 23005KT 6SM HZ BKN110 BKN250
     FM021530 24008KT P6SM SCT045 PROB30 0218/0222 VRB15G30KT 4SM
      -TSRA SCT025 BKN045CB=



000
FTUS42 KRAH 020540
TAFFAY
TAF
KFAY 020540Z 0206/0306 22006KT 6SM HZ SCT030 BKN110 BKN250
      TEMPO 0206/0210 6SM -RA FEW015 SCT030 OVC100
     FM021530 25014G21KT P6SM SCT045 PROB30 0220/0224 VRB15G30KT 4SM
      -TSRA SCT025 BKN045CB=



000
FTUS42 KRAH 020540
TAFRWI
TAF
KRWI 020540Z 0206/0306 21005KT P6SM BKN120 BKN250
     FM021600 24014G21KT P6SM SCT045 PROB30 0221/0301 VRB15G30KT 4SM
      -TSRA SCT025 BKN045CB=



000
FTUS42 KRAH 020540
TAFRDU
TAF
KRDU 020540Z 0206/0306 23005KT 6SM HZ BKN110 BKN250
      TEMPO 0206/0209 6SM -RA FEW035 SCT060 OVC100
     FM021530 25011G18KT P6SM SCT045 PROB30 0220/0224 VRB15G30KT 4SM
      -TSRA SCT025 BKN045CB=



000
FTUS42 KRAH 020540
TAFINT
TAF
KINT 020540Z 0206/0306 23005KT 6SM HZ BKN110 BKN250
     FM021530 24008KT P6SM SCT045 PROB30 0218/0222 VRB15G30KT 4SM
      -TSRA SCT025 BKN045CB=



000
FTUS42 KRAH 020540
TAFINT
TAF
KINT 020540Z 0206/0306 23005KT 6SM HZ BKN110 BKN250
     FM021530 24008KT P6SM SCT045 PROB30 0218/0222 VRB15G30KT 4SM
      -TSRA SCT025 BKN045CB=



000
FTUS42 KRAH 020540
TAFFAY
TAF
KFAY 020540Z 0206/0306 22006KT 6SM HZ SCT030 BKN110 BKN250
      TEMPO 0206/0210 6SM -RA FEW015 SCT030 OVC100
     FM021530 25014G21KT P6SM SCT045 PROB30 0220/0224 VRB15G30KT 4SM
      -TSRA SCT025 BKN045CB=



000
FTUS42 KRAH 020540
TAFRWI
TAF
KRWI 020540Z 0206/0306 21005KT P6SM BKN120 BKN250
     FM021600 24014G21KT P6SM SCT045 PROB30 0221/0301 VRB15G30KT 4SM
      -TSRA SCT025 BKN045CB=



000
FTUS42 KRAH 020540
TAFGSO
TAF
KGSO 020540Z 0206/0306 23005KT 6SM HZ BKN110 BKN250
     FM021530 24008KT P6SM SCT045 PROB30 0218/0222 VRB15G30KT 4SM
      -TSRA SCT025 BKN045CB=



000
FTUS42 KRAH 020540
TAFRDU
TAF
KRDU 020540Z 0206/0306 23005KT 6SM HZ BKN110 BKN250
      TEMPO 0206/0209 6SM -RA FEW035 SCT060 OVC100
     FM021530 25011G18KT P6SM SCT045 PROB30 0220/0224 VRB15G30KT 4SM
      -TSRA SCT025 BKN045CB=



000
FTUS42 KRAH 020148 AAB
TAFGSO
TAF AMD
KGSO 020148Z 0202/0224 19009KT P6SM OVC250
     FM020500 27003KT P6SM OVC120
     FM021600 24008KT P6SM BKN050=



000
FTUS42 KRAH 020148 AAB
TAFGSO
TAF AMD
KGSO 020148Z 0202/0224 19009KT P6SM OVC250
     FM020500 27003KT P6SM OVC120
     FM021600 24008KT P6SM BKN050=



000
FTUS42 KRAH 020147 AAA
TAFRDU
TAF AMD
KRDU 020147Z 0202/0224 22007KT P6SM OVC250
      TEMPO 0202/0204 6SM -RA HZ
     FM020400 27004KT P6SM OVC120
     FM021600 25009KT P6SM BKN050=



000
FTUS42 KRAH 020147 AAA
TAFRDU
TAF AMD
KRDU 020147Z 0202/0224 22007KT P6SM OVC250
      TEMPO 0202/0204 6SM -RA HZ
     FM020400 27004KT P6SM OVC120
     FM021600 25009KT P6SM BKN050=



000
FTUS42 KRAH 020031 AAA
TAFINT
TAF AMD
KINT 020031Z 0201/0224 21003KT 6SM HZ SCT050
     FM020500 27003KT P6SM OVC120
     FM021600 24008KT P6SM BKN050=



000
FTUS42 KRAH 020031 AAA
TAFINT
TAF AMD
KINT 020031Z 0201/0224 21003KT 6SM HZ SCT050
     FM020500 27003KT P6SM OVC120
     FM021600 24008KT P6SM BKN050=



000
FTUS42 KRAH 020031 AAA
TAFINT
TAF AMD
KINT 020031Z 0201/0224 21003KT 6SM HZ SCT050
     FM020500 27003KT P6SM OVC120
     FM021600 24008KT P6SM BKN050=



000
FTUS42 KRAH 020031 AAA
TAFINT
TAF AMD
KINT 020031Z 0201/0224 21003KT 6SM HZ SCT050
     FM020500 27003KT P6SM OVC120
     FM021600 24008KT P6SM BKN050=



000
FTUS42 KRAH 012330 AAA
TAFGSO
TAF AMD
KGSO 012330Z 0200/0224 20009G20KT 6SM TSRA BKN030CB
     FM020030 20006KT 6SM HZ SCT080 OVC250
     FM020500 27003KT P6SM OVC120
     FM021600 24008KT P6SM BKN050=



000
FTUS42 KRAH 012330 AAA
TAFGSO
TAF AMD
KGSO 012330Z 0200/0224 20009G20KT 6SM TSRA BKN030CB
     FM020030 20006KT 6SM HZ SCT080 OVC250
     FM020500 27003KT P6SM OVC120
     FM021600 24008KT P6SM BKN050=



000
FTUS42 KRAH 012330 AAA
TAFGSO
TAF AMD
KGSO 012330Z 0200/0224 20009G20KT 6SM TSRA BKN030CB
     FM020030 20006KT 6SM HZ SCT080 OVC250
     FM020500 27003KT P6SM OVC120
     FM021600 24008KT P6SM BKN050=



000
FTUS42 KRAH 012330 AAA
TAFGSO
TAF AMD
KGSO 012330Z 0200/0224 20009G20KT 6SM TSRA BKN030CB
     FM020030 20006KT 6SM HZ SCT080 OVC250
     FM020500 27003KT P6SM OVC120
     FM021600 24008KT P6SM BKN050=



000
FTUS42 KRAH 012327
TAFFAY
TAF
KFAY 012327Z 0200/0224 21005KT P6SM FEW050
     FM020900 27008KT P6SM BKN120
     FM021600 23010KT P6SM SCT050=



000
FTUS42 KRAH 012327
TAFGSO
TAF
KGSO 012327Z 0200/0224 25009KT 6SM HZ SCT080
     FM020500 27003KT P6SM OVC120
     FM021600 24008KT P6SM BKN050=



000
FTUS42 KRAH 012327
TAFRDU
TAF
KRDU 012327Z 0200/0224 23007KT P6SM BKN060
      TEMPO 0200/0204 5SM HZ
     FM020400 27004KT P6SM OVC120
     FM021600 25009KT P6SM BKN050=



000
FTUS42 KRAH 012327
TAFRWI
TAF
KRWI 012327Z 0200/0224 19006KT P6SM FEW050
     FM020800 30005KT P6SM BKN150
     FM021600 24009KT P6SM BKN050=



000
FTUS42 KRAH 012327
TAFINT
TAF
KINT 012327Z 0200/0224 25009G20KT 6SM HZ SCT050
     FM020500 27003KT P6SM OVC120
     FM021600 24008KT P6SM BKN050=



000
FTUS42 KRAH 012327
TAFRWI
TAF
KRWI 012327Z 0200/0224 19006KT P6SM FEW050
     FM020800 30005KT P6SM BKN150
     FM021600 24009KT P6SM BKN050=



000
FTUS42 KRAH 012327
TAFINT
TAF
KINT 012327Z 0200/0224 25009G20KT 6SM HZ SCT050
     FM020500 27003KT P6SM OVC120
     FM021600 24008KT P6SM BKN050=



000
FTUS42 KRAH 012327
TAFRDU
TAF
KRDU 012327Z 0200/0224 23007KT P6SM BKN060
      TEMPO 0200/0204 5SM HZ
     FM020400 27004KT P6SM OVC120
     FM021600 25009KT P6SM BKN050=



000
FTUS42 KRAH 012327
TAFFAY
TAF
KFAY 012327Z 0200/0224 21005KT P6SM FEW050
     FM020900 27008KT P6SM BKN120
     FM021600 23010KT P6SM SCT050=



000
FTUS42 KRAH 012327
TAFINT
TAF
KINT 012327Z 0200/0224 25009G20KT 6SM HZ SCT050
     FM020500 27003KT P6SM OVC120
     FM021600 24008KT P6SM BKN050=



000
FTUS42 KRAH 012327
TAFFAY
TAF
KFAY 012327Z 0200/0224 21005KT P6SM FEW050
     FM020900 27008KT P6SM BKN120
     FM021600 23010KT P6SM SCT050=



000
FTUS42 KRAH 012327
TAFGSO
TAF
KGSO 012327Z 0200/0224 25009KT 6SM HZ SCT080
     FM020500 27003KT P6SM OVC120
     FM021600 24008KT P6SM BKN050=



000
FTUS42 KRAH 012327
TAFRWI
TAF
KRWI 012327Z 0200/0224 19006KT P6SM FEW050
     FM020800 30005KT P6SM BKN150
     FM021600 24009KT P6SM BKN050=



000
FTUS42 KRAH 012327
TAFRDU
TAF
KRDU 012327Z 0200/0224 23007KT P6SM BKN060
      TEMPO 0200/0204 5SM HZ
     FM020400 27004KT P6SM OVC120
     FM021600 25009KT P6SM BKN050=



000
FTUS42 KRAH 012327
TAFGSO
TAF
KGSO 012327Z 0200/0224 25009KT 6SM HZ SCT080
     FM020500 27003KT P6SM OVC120
     FM021600 24008KT P6SM BKN050=



000
FTUS42 KRAH 012327
TAFRWI
TAF
KRWI 012327Z 0200/0224 19006KT P6SM FEW050
     FM020800 30005KT P6SM BKN150
     FM021600 24009KT P6SM BKN050=



000
FTUS42 KRAH 012327
TAFINT
TAF
KINT 012327Z 0200/0224 25009G20KT 6SM HZ SCT050
     FM020500 27003KT P6SM OVC120
     FM021600 24008KT P6SM BKN050=



000
FTUS42 KRAH 012327
TAFFAY
TAF
KFAY 012327Z 0200/0224 21005KT P6SM FEW050
     FM020900 27008KT P6SM BKN120
     FM021600 23010KT P6SM SCT050=



000
FTUS42 KRAH 012327
TAFRDU
TAF
KRDU 012327Z 0200/0224 23007KT P6SM BKN060
      TEMPO 0200/0204 5SM HZ
     FM020400 27004KT P6SM OVC120
     FM021600 25009KT P6SM BKN050=



000
FTUS42 KRAH 012327
TAFGSO
TAF
KGSO 012327Z 0200/0224 25009KT 6SM HZ SCT080
     FM020500 27003KT P6SM OVC120
     FM021600 24008KT P6SM BKN050=



000
FTUS42 KRAH 012219 AAA
TAFGSO
TAF AMD
KGSO 012219Z 0122/0218 25009KT 5SM HZ SCT070
      TEMPO 0123/0202 -SHRA BKN060
     FM020500 27003KT P6SM OVC120
     FM021600 24008KT P6SM BKN050=



000
FTUS42 KRAH 012219 AAA
TAFGSO
TAF AMD
KGSO 012219Z 0122/0218 25009KT 5SM HZ SCT070
      TEMPO 0123/0202 -SHRA BKN060
     FM020500 27003KT P6SM OVC120
     FM021600 24008KT P6SM BKN050=



000
FTUS42 KRAH 012130 AAA
TAFINT
TAF AMD
KINT 012130Z 0122/0218 25009KT P6SM SCT070
      TEMPO 0122/0202 -SHRA BKN060
     FM020500 27003KT P6SM OVC120
     FM021600 24008KT P6SM BKN050=



000
FTUS42 KRAH 012130 AAA
TAFINT
TAF AMD
KINT 012130Z 0122/0218 25009KT P6SM SCT070
      TEMPO 0122/0202 -SHRA BKN060
     FM020500 27003KT P6SM OVC120
     FM021600 24008KT P6SM BKN050=



000
FTUS42 KRAH 011839 AAA
TAFFAY
TAF AMD
KFAY 011839Z 0119/0218 24009KT P6SM BKN025
      TEMPO 0119/0120 SCT025 BKN040
     FM012000 23010KT P6SM BKN045
     FM020000 20007KT P6SM FEW050
     FM020900 27008KT P6SM BKN120
     FM021600 23010KT P6SM SCT050=



000
FTUS42 KRAH 011839 AAA
TAFFAY
TAF AMD
KFAY 011839Z 0119/0218 24009KT P6SM BKN025
      TEMPO 0119/0120 SCT025 BKN040
     FM012000 23010KT P6SM BKN045
     FM020000 20007KT P6SM FEW050
     FM020900 27008KT P6SM BKN120
     FM021600 23010KT P6SM SCT050=



000
FTUS42 KRAH 011729
TAFFAY
TAF
KFAY 011729Z 0118/0218 24009KT P6SM SCT025 SCT250
     FM012000 23009KT P6SM BKN045
     FM020000 20007KT P6SM FEW050
     FM020900 27008KT P6SM BKN120
     FM021600 23010KT P6SM SCT050=



000
FTUS42 KRAH 011729
TAFGSO
TAF
KGSO 011729Z 0118/0218 25009KT P6SM SCT070
      TEMPO 0122/0202 BKN060
     FM020500 27003KT P6SM OVC120
     FM021600 24008KT P6SM BKN050=



000
FTUS42 KRAH 011729
TAFRWI
TAF
KRWI 011729Z 0118/0218 23009KT P6SM SCT050
     FM020000 20008KT P6SM SCT250
     FM020800 30005KT P6SM BKN150
     FM021600 24009KT P6SM BKN050=



000
FTUS42 KRAH 011729
TAFINT
TAF
KINT 011729Z 0118/0218 25009KT P6SM SCT070
      TEMPO 0122/0202 BKN060
     FM020500 27003KT P6SM OVC120
     FM021600 24008KT P6SM BKN050=



000
FTUS42 KRAH 011729
TAFRDU
TAF
KRDU 011729Z 0118/0218 23009KT P6SM BKN060
     FM020400 27004KT P6SM OVC120
     FM021600 25009KT P6SM BKN050=



000
FTUS42 KRAH 011729
TAFFAY
TAF
KFAY 011729Z 0118/0218 24009KT P6SM SCT025 SCT250
     FM012000 23009KT P6SM BKN045
     FM020000 20007KT P6SM FEW050
     FM020900 27008KT P6SM BKN120
     FM021600 23010KT P6SM SCT050=



000
FTUS42 KRAH 011729
TAFINT
TAF
KINT 011729Z 0118/0218 25009KT P6SM SCT070
      TEMPO 0122/0202 BKN060
     FM020500 27003KT P6SM OVC120
     FM021600 24008KT P6SM BKN050=



000
FTUS42 KRAH 011729
TAFRDU
TAF
KRDU 011729Z 0118/0218 23009KT P6SM BKN060
     FM020400 27004KT P6SM OVC120
     FM021600 25009KT P6SM BKN050=



000
FTUS42 KRAH 011729
TAFGSO
TAF
KGSO 011729Z 0118/0218 25009KT P6SM SCT070
      TEMPO 0122/0202 BKN060
     FM020500 27003KT P6SM OVC120
     FM021600 24008KT P6SM BKN050=



000
FTUS42 KRAH 011729
TAFRWI
TAF
KRWI 011729Z 0118/0218 23009KT P6SM SCT050
     FM020000 20008KT P6SM SCT250
     FM020800 30005KT P6SM BKN150
     FM021600 24009KT P6SM BKN050=



000
FTUS42 KRAH 011729
TAFGSO
TAF
KGSO 011729Z 0118/0218 25009KT P6SM SCT070
      TEMPO 0122/0202 BKN060
     FM020500 27003KT P6SM OVC120
     FM021600 24008KT P6SM BKN050=



000
FTUS42 KRAH 011729
TAFFAY
TAF
KFAY 011729Z 0118/0218 24009KT P6SM SCT025 SCT250
     FM012000 23009KT P6SM BKN045
     FM020000 20007KT P6SM FEW050
     FM020900 27008KT P6SM BKN120
     FM021600 23010KT P6SM SCT050=



000
FTUS42 KRAH 011729
TAFRDU
TAF
KRDU 011729Z 0118/0218 23009KT P6SM BKN060
     FM020400 27004KT P6SM OVC120
     FM021600 25009KT P6SM BKN050=



000
FTUS42 KRAH 011729
TAFRWI
TAF
KRWI 011729Z 0118/0218 23009KT P6SM SCT050
     FM020000 20008KT P6SM SCT250
     FM020800 30005KT P6SM BKN150
     FM021600 24009KT P6SM BKN050=



000
FTUS42 KRAH 011729
TAFINT
TAF
KINT 011729Z 0118/0218 25009KT P6SM SCT070
      TEMPO 0122/0202 BKN060
     FM020500 27003KT P6SM OVC120
     FM021600 24008KT P6SM BKN050=



000
FTUS42 KRAH 011644 AAC
TAFFAY
TAF AMD
KFAY 011644Z 0117/0212 24009KT P6SM SCT025 SCT250
      TEMPO 0117/0118 BKN022=



000
FTUS42 KRAH 011644 AAC
TAFFAY
TAF AMD
KFAY 011644Z 0117/0212 24009KT P6SM SCT025 SCT250
      TEMPO 0117/0118 BKN022=



000
FTUS42 KRAH 011451 AAB
TAFFAY
TAF AMD
KFAY 011451Z 0115/0212 22007KT P6SM BKN012 BKN250
      TEMPO 0115/0117 SCT012 BKN250
     FM011700 24009KT P6SM FEW040 SCT250=



000
FTUS42 KRAH 011340 AAA
TAFFAY
TAF AMD
KFAY 011340Z 0114/0212 22007KT P6SM BKN009 BKN250
      TEMPO 0114/0115 SCT009 BKN250
     FM011500 24009KT P6SM FEW040 SCT250=



000
FTUS42 KRAH 011340 AAA
TAFFAY
TAF AMD
KFAY 011340Z 0114/0212 22007KT P6SM BKN009 BKN250
      TEMPO 0114/0115 SCT009 BKN250
     FM011500 24009KT P6SM FEW040 SCT250=



000
FTUS42 KRAH 011340 AAA
TAFFAY
TAF AMD
KFAY 011340Z 0114/0212 22007KT P6SM BKN009 BKN250
      TEMPO 0114/0115 SCT009 BKN250
     FM011500 24009KT P6SM FEW040 SCT250=



000
FTUS42 KRAH 011120
TAFGSO
TAF
KGSO 011120Z 0112/0212 25008KT P6SM SCT250=



000
FTUS42 KRAH 011120
TAFINT
TAF
KINT 011120Z 0112/0212 25007KT P6SM SCT250=



000
FTUS42 KRAH 011120
TAFFAY
TAF
KFAY 011120Z 0112/0212 22007KT 6SM BR BKN007 BKN250
      TEMPO 0113/0115 SCT009 BKN250
     FM011500 24009KT P6SM FEW040 SCT250=



000
FTUS42 KRAH 011120
TAFFAY
TAF
KFAY 011120Z 0112/0212 22007KT 6SM BR BKN007 BKN250
      TEMPO 0113/0115 SCT009 BKN250
     FM011500 24009KT P6SM FEW040 SCT250=



000
FTUS42 KRAH 011120
TAFINT
TAF
KINT 011120Z 0112/0212 25007KT P6SM SCT250=



000
FTUS42 KRAH 011120
TAFGSO
TAF
KGSO 011120Z 0112/0212 25008KT P6SM SCT250=



000
FTUS42 KRAH 011120
TAFRWI
TAF
KRWI 011120Z 0112/0212 21006KT 6SM BR BKN008 BKN250
      TEMPO 0113/0114 SCT011
     FM011400 23008KT P6SM SCT250=



000
FTUS42 KRAH 011120
TAFINT
TAF
KINT 011120Z 0112/0212 25007KT P6SM SCT250=



000
FTUS42 KRAH 011120
TAFRWI
TAF
KRWI 011120Z 0112/0212 21006KT 6SM BR BKN008 BKN250
      TEMPO 0113/0114 SCT011
     FM011400 23008KT P6SM SCT250=



000
FTUS42 KRAH 011120
TAFFAY
TAF
KFAY 011120Z 0112/0212 22007KT 6SM BR BKN007 BKN250
      TEMPO 0113/0115 SCT009 BKN250
     FM011500 24009KT P6SM FEW040 SCT250=



000
FTUS42 KRAH 011120
TAFRWI
TAF
KRWI 011120Z 0112/0212 21006KT 6SM BR BKN008 BKN250
      TEMPO 0113/0114 SCT011
     FM011400 23008KT P6SM SCT250=



000
FTUS42 KRAH 011120
TAFFAY
TAF
KFAY 011120Z 0112/0212 22007KT 6SM BR BKN007 BKN250
      TEMPO 0113/0115 SCT009 BKN250
     FM011500 24009KT P6SM FEW040 SCT250=



000
FTUS42 KRAH 011120
TAFRDU
TAF
KRDU 011120Z 0112/0212 23006KT 5SM BR BKN006 BKN250
      TEMPO 0113/0114 6SM BR SCT008
     FM011400 23008KT P6SM SCT250=



000
FTUS42 KRAH 011120
TAFGSO
TAF
KGSO 011120Z 0112/0212 25008KT P6SM SCT250=



000
FTUS42 KRAH 011120
TAFRWI
TAF
KRWI 011120Z 0112/0212 21006KT 6SM BR BKN008 BKN250
      TEMPO 0113/0114 SCT011
     FM011400 23008KT P6SM SCT250=



000
FTUS42 KRAH 011120
TAFRDU
TAF
KRDU 011120Z 0112/0212 23006KT 5SM BR BKN006 BKN250
      TEMPO 0113/0114 6SM BR SCT008
     FM011400 23008KT P6SM SCT250=



000
FTUS42 KRAH 011120
TAFRDU
TAF
KRDU 011120Z 0112/0212 23006KT 5SM BR BKN006 BKN250
      TEMPO 0113/0114 6SM BR SCT008
     FM011400 23008KT P6SM SCT250=



000
FTUS42 KRAH 011120
TAFINT
TAF
KINT 011120Z 0112/0212 25007KT P6SM SCT250=



000
FTUS42 KRAH 011120
TAFRDU
TAF
KRDU 011120Z 0112/0212 23006KT 5SM BR BKN006 BKN250
      TEMPO 0113/0114 6SM BR SCT008
     FM011400 23008KT P6SM SCT250=



000
FTUS42 KRAH 011120
TAFGSO
TAF
KGSO 011120Z 0112/0212 25008KT P6SM SCT250=



000
FTUS42 KRAH 011045 AAB
TAFRWI
TAF AMD
KRWI 011045Z 0111/0206 21006KT 6SM BR BKN008 BKN250
      TEMPO 0113/0114 SCT011
     FM011400 23008KT P6SM SCT250=



000
FTUS42 KRAH 011045 AAC
TAFFAY
TAF AMD
KFAY 011045Z 0111/0206 22007KT 6SM BR BKN007 BKN250
      TEMPO 0113/0115 SCT009 BKN250
     FM011500 24009KT P6SM FEW040 SCT250=



000
FTUS42 KRAH 011045 AAA
TAFINT
TAF AMD
KINT 011045Z 0111/0206 25007KT P6SM SCT250=



000
FTUS42 KRAH 011045 AAB
TAFRWI
TAF AMD
KRWI 011045Z 0111/0206 21006KT 6SM BR BKN008 BKN250
      TEMPO 0113/0114 SCT011
     FM011400 23008KT P6SM SCT250=



000
FTUS42 KRAH 011045 AAC
TAFRDU
TAF AMD
KRDU 011045Z 0111/0206 23006KT 5SM BR BKN006 BKN250
      TEMPO 0113/0114 6SM BR SCT008
     FM011400 23008KT P6SM SCT250=



000
FTUS42 KRAH 011045 AAC
TAFRDU
TAF AMD
KRDU 011045Z 0111/0206 23006KT 5SM BR BKN006 BKN250
      TEMPO 0113/0114 6SM BR SCT008
     FM011400 23008KT P6SM SCT250=



000
FTUS42 KRAH 011045 AAA
TAFGSO
TAF AMD
KGSO 011045Z 0111/0206 25008KT P6SM SCT250=



000
FTUS42 KRAH 011045 AAA
TAFINT
TAF AMD
KINT 011045Z 0111/0206 25007KT P6SM SCT250=



000
FTUS42 KRAH 011045 AAC
TAFFAY
TAF AMD
KFAY 011045Z 0111/0206 22007KT 6SM BR BKN007 BKN250
      TEMPO 0113/0115 SCT009 BKN250
     FM011500 24009KT P6SM FEW040 SCT250=



000
FTUS42 KRAH 011045 AAC
TAFRDU
TAF AMD
KRDU 011045Z 0111/0206 23006KT 5SM BR BKN006 BKN250
      TEMPO 0113/0114 6SM BR SCT008
     FM011400 23008KT P6SM SCT250=



000
FTUS42 KRAH 011045 AAA
TAFINT
TAF AMD
KINT 011045Z 0111/0206 25007KT P6SM SCT250=



000
FTUS42 KRAH 011045 AAA
TAFGSO
TAF AMD
KGSO 011045Z 0111/0206 25008KT P6SM SCT250=



000
FTUS42 KRAH 011045 AAB
TAFRWI
TAF AMD
KRWI 011045Z 0111/0206 21006KT 6SM BR BKN008 BKN250
      TEMPO 0113/0114 SCT011
     FM011400 23008KT P6SM SCT250=



000
FTUS42 KRAH 011045 AAC
TAFFAY
TAF AMD
KFAY 011045Z 0111/0206 22007KT 6SM BR BKN007 BKN250
      TEMPO 0113/0115 SCT009 BKN250
     FM011500 24009KT P6SM FEW040 SCT250=



000
FTUS42 KRAH 011045 AAC
TAFRDU
TAF AMD
KRDU 011045Z 0111/0206 23006KT 5SM BR BKN006 BKN250
      TEMPO 0113/0114 6SM BR SCT008
     FM011400 23008KT P6SM SCT250=



000
FTUS42 KRAH 011045 AAC
TAFFAY
TAF AMD
KFAY 011045Z 0111/0206 22007KT 6SM BR BKN007 BKN250
      TEMPO 0113/0115 SCT009 BKN250
     FM011500 24009KT P6SM FEW040 SCT250=



000
FTUS42 KRAH 011045 AAA
TAFGSO
TAF AMD
KGSO 011045Z 0111/0206 25008KT P6SM SCT250=



000
FTUS42 KRAH 011045 AAA
TAFINT
TAF AMD
KINT 011045Z 0111/0206 25007KT P6SM SCT250=



000
FTUS42 KRAH 011045 AAB
TAFRWI
TAF AMD
KRWI 011045Z 0111/0206 21006KT 6SM BR BKN008 BKN250
      TEMPO 0113/0114 SCT011
     FM011400 23008KT P6SM SCT250=



000
FTUS42 KRAH 011045 AAA
TAFGSO
TAF AMD
KGSO 011045Z 0111/0206 25008KT P6SM SCT250=



000
FTUS42 KRAH 010833 AAB
TAFRDU
TAF AMD
KRDU 010833Z 0109/0206 23006KT 6SM BR SCT007 BKN250
      TEMPO 0109/0112 5SM BR BKN007
     FM011300 24007KT P6SM SCT250=



000
FTUS42 KRAH 010833 AAB
TAFRDU
TAF AMD
KRDU 010833Z 0109/0206 23006KT 6SM BR SCT007 BKN250
      TEMPO 0109/0112 5SM BR BKN007
     FM011300 24007KT P6SM SCT250=



000
FTUS42 KRAH 010807 AAA
TAFRWI
TAF AMD
KRWI 010807Z 0108/0206 21006KT P6SM SCT250
      TEMPO 0108/0111 6SM BR BKN007=



000
FTUS42 KRAH 010757 AAA
TAFRDU
TAF AMD
KRDU 010757Z 0108/0206 23006KT P6SM SCT250
      TEMPO 0109/0112 6SM BR SCT007=



000
FTUS42 KRAH 010757 AAA
TAFRDU
TAF AMD
KRDU 010757Z 0108/0206 23006KT P6SM SCT250
      TEMPO 0109/0112 6SM BR SCT007=



000
FTUS42 KRAH 010757 AAA
TAFRDU
TAF AMD
KRDU 010757Z 0108/0206 23006KT P6SM SCT250
      TEMPO 0109/0112 6SM BR SCT007=



000
FTUS42 KRAH 010717 AAB
TAFFAY
TAF AMD
KFAY 010717Z 0107/0206 21006KT P6SM SCT250
     FM010740 21006KT 5SM BR BKN006 BKN250
     FM011300 23007KT P6SM SCT250
      TEMPO 0113/0115 6SM BR SCT009=



000
FTUS42 KRAH 010717 AAB
TAFFAY
TAF AMD
KFAY 010717Z 0107/0206 21006KT P6SM SCT250
     FM010740 21006KT 5SM BR BKN006 BKN250
     FM011300 23007KT P6SM SCT250
      TEMPO 0113/0115 6SM BR SCT009=



000
FTUS42 KRAH 010650 AAA
TAFFAY
TAF AMD
KFAY 010650Z 0107/0206 21006KT P6SM SCT250
     FM010800 21006KT 5SM BR BKN006 BKN250
     FM011300 23007KT P6SM SCT250
      TEMPO 0113/0115 6SM BR SCT009=



000
FTUS42 KRAH 010650 AAA
TAFFAY
TAF AMD
KFAY 010650Z 0107/0206 21006KT P6SM SCT250
     FM010800 21006KT 5SM BR BKN006 BKN250
     FM011300 23007KT P6SM SCT250
      TEMPO 0113/0115 6SM BR SCT009=



000
FTUS42 KRAH 010650 AAA
TAFFAY
TAF AMD
KFAY 010650Z 0107/0206 21006KT P6SM SCT250
     FM010800 21006KT 5SM BR BKN006 BKN250
     FM011300 23007KT P6SM SCT250
      TEMPO 0113/0115 6SM BR SCT009=



000
FTUS42 KRAH 010650 AAA
TAFFAY
TAF AMD
KFAY 010650Z 0107/0206 21006KT P6SM SCT250
     FM010800 21006KT 5SM BR BKN006 BKN250
     FM011300 23007KT P6SM SCT250
      TEMPO 0113/0115 6SM BR SCT009=



000
FTUS42 KRAH 010540
TAFRWI
TAF
KRWI 010540Z 0106/0206 21006KT P6SM SCT250=



000
FTUS42 KRAH 010540
TAFFAY
TAF
KFAY 010540Z 0106/0206 21006KT P6SM SCT250
      TEMPO 0109/0113 5SM BR BKN006=



000
FTUS42 KRAH 010540
TAFGSO
TAF
KGSO 010540Z 0106/0206 23006KT P6SM SCT250=



000
FTUS42 KRAH 010540
TAFINT
TAF
KINT 010540Z 0106/0206 23006KT P6SM SCT250=



000
FTUS42 KRAH 010540
TAFRWI
TAF
KRWI 010540Z 0106/0206 21006KT P6SM SCT250=



000
FTUS42 KRAH 010540
TAFRDU
TAF
KRDU 010540Z 0106/0206 23006KT P6SM SCT250=



000
FTUS42 KRAH 010540
TAFFAY
TAF
KFAY 010540Z 0106/0206 21006KT P6SM SCT250
      TEMPO 0109/0113 5SM BR BKN006=



000
FTUS42 KRAH 010540
TAFGSO
TAF
KGSO 010540Z 0106/0206 23006KT P6SM SCT250=



000
FTUS42 KRAH 010540
TAFINT
TAF
KINT 010540Z 0106/0206 23006KT P6SM SCT250=



000
FTUS42 KRAH 010540
TAFRDU
TAF
KRDU 010540Z 0106/0206 23006KT P6SM SCT250=



000
FTUS42 KRAH 010214 AAA
TAFRWI
TAF AMD
KRWI 010214Z 0102/0124 21007KT P6SM VCSH SCT040 BKN100
     FM010500 23004KT P6SM FEW035 BKN120
     FM010900 21005KT P6SM SCT006
     FM011600 25007KT P6SM SCT040=



000
FTUS42 KRAH 010214 AAA
TAFRWI
TAF AMD
KRWI 010214Z 0102/0124 21007KT P6SM VCSH SCT040 BKN100
     FM010500 23004KT P6SM FEW035 BKN120
     FM010900 21005KT P6SM SCT006
     FM011600 25007KT P6SM SCT040=



000
FTUS42 KRAH 010214 AAA
TAFRWI
TAF AMD
KRWI 010214Z 0102/0124 21007KT P6SM VCSH SCT040 BKN100
     FM010500 23004KT P6SM FEW035 BKN120
     FM010900 21005KT P6SM SCT006
     FM011600 25007KT P6SM SCT040=



000
FTUS42 KRAH 010158 AAA
TAFRDU
TAF AMD
KRDU 010158Z 0102/0124 19005KT P6SM SCT050 BKN150
     FM010800 23004KT P6SM SCT080
     FM011600 24008KT P6SM SCT040=



000
FTUS42 KRAH 010158 AAA
TAFRDU
TAF AMD
KRDU 010158Z 0102/0124 19005KT P6SM SCT050 BKN150
     FM010800 23004KT P6SM SCT080
     FM011600 24008KT P6SM SCT040=



000
FTUS42 KRAH 010156 AAA
TAFGSO
TAF AMD
KGSO 010156Z 0102/0124 VRB05KT P6SM VCSH SCT050 SCT120
     FM010500 24004KT P6SM SCT080
     FM011600 24008KT P6SM SCT040 SCT250=



000
FTUS42 KRAH 010156 AAA
TAFGSO
TAF AMD
KGSO 010156Z 0102/0124 VRB05KT P6SM VCSH SCT050 SCT120
     FM010500 24004KT P6SM SCT080
     FM011600 24008KT P6SM SCT040 SCT250=



000
FTUS42 KRAH 010058 AAA
TAFFAY
TAF AMD
KFAY 010058Z 0101/0124 20008KT P6SM -RA SCT040 BKN090
     FM010300 19008KT P6SM SCT050 OVC100
     FM010900 21007KT P6SM SCT050
     FM011600 23008KT P6SM SCT035=



000
FTUS42 KRAH 010058 AAA
TAFFAY
TAF AMD
KFAY 010058Z 0101/0124 20008KT P6SM -RA SCT040 BKN090
     FM010300 19008KT P6SM SCT050 OVC100
     FM010900 21007KT P6SM SCT050
     FM011600 23008KT P6SM SCT035=



000
FTUS42 KRAH 010058 AAA
TAFFAY
TAF AMD
KFAY 010058Z 0101/0124 20008KT P6SM -RA SCT040 BKN090
     FM010300 19008KT P6SM SCT050 OVC100
     FM010900 21007KT P6SM SCT050
     FM011600 23008KT P6SM SCT035=



000
FTUS42 KRAH 302324
TAFRDU
TAF
KRDU 302324Z 0100/0124 22008G15KT P6SM VCTS SCT050CB BKN150
      TEMPO 0100/0102 VRB20G40KT 2SM TSRA BKN026CB
     FM010200 VRB04KT P6SM VCSH SCT050 BKN150
     FM010800 23004KT P6SM SCT080
     FM011600 24008KT P6SM SCT040=



000
FTUS42 KRAH 302324
TAFINT
TAF
KINT 302324Z 0100/0124 VRB05KT P6SM VCSH BKN050
      TEMPO 0100/0102 VRB16G30KT 4SM -SHRA BR SCT030 BKN040
     FM010500 24004KT P6SM SCT080
     FM011600 24008KT P6SM SCT040 SCT250=



000
FTUS42 KRAH 302324
TAFFAY
TAF
KFAY 302324Z 0100/0124 20010G15KT P6SM VCTS SCT040 BKN060CB
      TEMPO 0100/0102 VRB28G50KT 1 1/2SM TSRA SCT015 OVC028CB
     FM010400 19008KT P6SM VCSH SCT050 OVC100
     FM010900 21007KT P6SM SCT050
     FM011600 23008KT P6SM SCT035=



000
FTUS42 KRAH 302324
TAFGSO
TAF
KGSO 302324Z 0100/0124 VRB05KT P6SM VCSH BKN050
      TEMPO 0100/0103 VRB16G30KT 4SM -SHRA BR SCT030 BKN040
     FM010500 24004KT P6SM SCT080
     FM011600 24008KT P6SM SCT040 SCT250=



000
FTUS42 KRAH 302324
TAFRWI
TAF
KRWI 302324Z 0100/0124 19010G18KT P6SM VCTS SCT050CB
      TEMPO 0101/0103 VRB20G40KT 2SM TSRA SCT018 BKN025CB
     FM010500 23004KT P6SM FEW035 BKN120
     FM010900 21005KT P6SM SCT006
     FM011600 25007KT P6SM SCT040=



000
FTUS42 KRAH 302324
TAFINT
TAF
KINT 302324Z 0100/0124 VRB05KT P6SM VCSH BKN050
      TEMPO 0100/0102 VRB16G30KT 4SM -SHRA BR SCT030 BKN040
     FM010500 24004KT P6SM SCT080
     FM011600 24008KT P6SM SCT040 SCT250=



000
FTUS42 KRAH 302324
TAFRDU
TAF
KRDU 302324Z 0100/0124 22008G15KT P6SM VCTS SCT050CB BKN150
      TEMPO 0100/0102 VRB20G40KT 2SM TSRA BKN026CB
     FM010200 VRB04KT P6SM VCSH SCT050 BKN150
     FM010800 23004KT P6SM SCT080
     FM011600 24008KT P6SM SCT040=



000
FTUS42 KRAH 302324
TAFFAY
TAF
KFAY 302324Z 0100/0124 20010G15KT P6SM VCTS SCT040 BKN060CB
      TEMPO 0100/0102 VRB28G50KT 1 1/2SM TSRA SCT015 OVC028CB
     FM010400 19008KT P6SM VCSH SCT050 OVC100
     FM010900 21007KT P6SM SCT050
     FM011600 23008KT P6SM SCT035=



000
FTUS42 KRAH 302324
TAFRWI
TAF
KRWI 302324Z 0100/0124 19010G18KT P6SM VCTS SCT050CB
      TEMPO 0101/0103 VRB20G40KT 2SM TSRA SCT018 BKN025CB
     FM010500 23004KT P6SM FEW035 BKN120
     FM010900 21005KT P6SM SCT006
     FM011600 25007KT P6SM SCT040=



000
FTUS42 KRAH 302324
TAFGSO
TAF
KGSO 302324Z 0100/0124 VRB05KT P6SM VCSH BKN050
      TEMPO 0100/0103 VRB16G30KT 4SM -SHRA BR SCT030 BKN040
     FM010500 24004KT P6SM SCT080
     FM011600 24008KT P6SM SCT040 SCT250=



000
FTUS42 KRAH 302259 AAB
TAFGSO
TAF AMD
KGSO 302259Z 3023/0118 VRB05KT P6SM VCSH SCT050 BKN120
      TEMPO 3023/0102 VRB18G33KT 3SM SHRA BR SCT025 BKN035
     FM010400 26007KT P6SM SCT080
     FM010800 22004KT P6SM SCT008
     FM011300 24009KT P6SM FEW050=



000
FTUS42 KRAH 302259 AAB
TAFGSO
TAF AMD
KGSO 302259Z 3023/0118 VRB05KT P6SM VCSH SCT050 BKN120
      TEMPO 3023/0102 VRB18G33KT 3SM SHRA BR SCT025 BKN035
     FM010400 26007KT P6SM SCT080
     FM010800 22004KT P6SM SCT008
     FM011300 24009KT P6SM FEW050=



000
FTUS42 KRAH 302235 AAA
TAFRDU
TAF AMD
KRDU 302235Z 3023/0118 22008G15KT P6SM VCTS FEW050CB BKN150
      TEMPO 3023/0102 VRB20G40KT 2SM TSRA BKN030CB
     FM010400 23004KT P6SM BKN010
     FM011300 26008KT P6SM SKC=



000
FTUS42 KRAH 302235 AAA
TAFRDU
TAF AMD
KRDU 302235Z 3023/0118 22008G15KT P6SM VCTS FEW050CB BKN150
      TEMPO 3023/0102 VRB20G40KT 2SM TSRA BKN030CB
     FM010400 23004KT P6SM BKN010
     FM011300 26008KT P6SM SKC=



000
FTUS42 KRAH 302226 AAA
TAFINT
TAF AMD
KINT 302226Z 3022/0118 20009KT P6SM VCTS SCT050CB
      TEMPO 3022/3024 VRB20G40KT 2SM TSRA BKN024CB
     FM010200 25007KT P6SM BKN080
     FM011300 24009KT P6SM FEW050=



000
FTUS42 KRAH 302226 AAA
TAFINT
TAF AMD
KINT 302226Z 3022/0118 20009KT P6SM VCTS SCT050CB
      TEMPO 3022/3024 VRB20G40KT 2SM TSRA BKN024CB
     FM010200 25007KT P6SM BKN080
     FM011300 24009KT P6SM FEW050=



000
FTUS42 KRAH 302226 AAA
TAFINT
TAF AMD
KINT 302226Z 3022/0118 20009KT P6SM VCTS SCT050CB
      TEMPO 3022/3024 VRB20G40KT 2SM TSRA BKN024CB
     FM010200 25007KT P6SM BKN080
     FM011300 24009KT P6SM FEW050=



000
FTUS42 KRAH 302226 AAA
TAFINT
TAF AMD
KINT 302226Z 3022/0118 20009KT P6SM VCTS SCT050CB
      TEMPO 3022/3024 VRB20G40KT 2SM TSRA BKN024CB
     FM010200 25007KT P6SM BKN080
     FM011300 24009KT P6SM FEW050=



000
FTUS42 KRAH 302219 AAA
TAFRWI
TAF AMD
KRWI 302219Z 3022/0118 VRB06G15KT P6SM VCTS SCT050CB
      TEMPO 3023/0102 VRB20G45KT 2SM TSRA SCT018 BKN025CB
     FM010500 20004KT P6SM SCT009 BKN025
     FM011300 25007KT P6SM SCT030=



000
FTUS42 KRAH 302219 AAA
TAFRWI
TAF AMD
KRWI 302219Z 3022/0118 VRB06G15KT P6SM VCTS SCT050CB
      TEMPO 3023/0102 VRB20G45KT 2SM TSRA SCT018 BKN025CB
     FM010500 20004KT P6SM SCT009 BKN025
     FM011300 25007KT P6SM SCT030=



000
FTUS42 KRAH 302219 AAA
TAFRWI
TAF AMD
KRWI 302219Z 3022/0118 VRB06G15KT P6SM VCTS SCT050CB
      TEMPO 3023/0102 VRB20G45KT 2SM TSRA SCT018 BKN025CB
     FM010500 20004KT P6SM SCT009 BKN025
     FM011300 25007KT P6SM SCT030=



000
FTUS42 KRAH 302219 AAA
TAFRWI
TAF AMD
KRWI 302219Z 3022/0118 VRB06G15KT P6SM VCTS SCT050CB
      TEMPO 3023/0102 VRB20G45KT 2SM TSRA SCT018 BKN025CB
     FM010500 20004KT P6SM SCT009 BKN025
     FM011300 25007KT P6SM SCT030=



000
FTUS42 KRAH 302213 AAB
TAFFAY
TAF AMD
KFAY 302213Z 3022/0118 20010G15KT P6SM VCTS SCT050CB
      TEMPO 3022/3024 VRB28G50KT 1 1/2SM TSRA SCT015 OVC028CB
     FM010300 24006KT P6SM SCT009 BKN120
     FM011300 25008KT P6SM SCT030=



000
FTUS42 KRAH 302213 AAB
TAFFAY
TAF AMD
KFAY 302213Z 3022/0118 20010G15KT P6SM VCTS SCT050CB
      TEMPO 3022/3024 VRB28G50KT 1 1/2SM TSRA SCT015 OVC028CB
     FM010300 24006KT P6SM SCT009 BKN120
     FM011300 25008KT P6SM SCT030=



    US Dept of Commerce
    National Oceanic and Atmospheric Administration
    National Weather Service
    1325 East West Highway
    Silver Spring, MD 20910
    Page Author: NWS Internet Services Team
Disclaimer
Information Quality
Credits
Glossary
Privacy Policy
Freedom of Information Act (FOIA)
About Us
Career Opportunities